SVA35 OEJN-KIAD
Flight info
| Callsign | SVA35 |
|---|---|
| Flight time | N/A |
| Altitude | 30000 |
| Route | BOMOX M686 GIBEL L300 LXR DCT NOZ L551 ANTAR DCT KPC DCT RIPLI UN137 NEVRA/N0491F320 UN137 SKP DCT KOGIS DCT BITLA DCT BONZI DCT RINAV DCT POD DCT VRANA DCT NIVES DCT GORPA DCT SIMBA DCT EXITI DCT GASKA DCT MAPOX DCT SONEB DCT GODOS DCT GOMUP/M084F340 DCT 58N020W 59N030W 58N040W 56N050W DCT JANJO/N0481F340 N712B QUBIS/N0477F360 DCT KJOHN DCT ALB HYPER9 |
| Aircraft | B77W/H-SDE1E2E3FGHIJ2J3J4J5M1RWXY/LB1D1 |
Departure
| Time | 2026-04-30 03:34 |
|---|---|
| Airport | King Abdulaziz International Airport (OEJN) |
Arrival
| Time | N/A |
|---|---|
| Airport | Washington Dulles International Airport (KIAD) |
| Time | Latitude | Longitude | Altitude | Speed | Heading |
|---|---|---|---|---|---|
| 2026-04-30 02:48 | 21.67142 | 39.16651 | 38 ft | 0 kts | 183° |
| 2026-04-30 03:17 | 21.67150 | 39.16651 | 36 ft | 4 kts | 183° |
| 2026-04-30 03:18 | 21.67177 | 39.16653 | 35 ft | 4 kts | 183° |
| 2026-04-30 03:18 | 21.67201 | 39.16654 | 35 ft | 4 kts | 181° |
| 2026-04-30 03:18 | 21.67224 | 39.16649 | 35 ft | 4 kts | 129° |
| 2026-04-30 03:18 | 21.67234 | 39.16624 | 37 ft | 4 kts | 96° |
| 2026-04-30 03:19 | 21.67235 | 39.16610 | 37 ft | 2 kts | 96° |
| 2026-04-30 03:19 | 21.67235 | 39.16603 | 37 ft | 0 kts | 96° |
| 2026-04-30 03:22 | 21.67235 | 39.16607 | 37 ft | 2 kts | 96° |
| 2026-04-30 03:23 | 21.67233 | 39.16624 | 37 ft | 2 kts | 96° |
| 2026-04-30 03:23 | 21.67231 | 39.16647 | 35 ft | 5 kts | 96° |
| 2026-04-30 03:23 | 21.67224 | 39.16710 | 37 ft | 10 kts | 96° |
| 2026-04-30 03:23 | 21.67246 | 39.16773 | 37 ft | 10 kts | 30° |
| 2026-04-30 03:24 | 21.67312 | 39.16774 | 37 ft | 10 kts | 345° |
| 2026-04-30 03:24 | 21.67377 | 39.16754 | 36 ft | 10 kts | 344° |
| 2026-04-30 03:24 | 21.67441 | 39.16734 | 36 ft | 10 kts | 344° |
| 2026-04-30 03:24 | 21.67505 | 39.16713 | 36 ft | 10 kts | 342° |
| 2026-04-30 03:25 | 21.67569 | 39.16690 | 37 ft | 10 kts | 341° |
| 2026-04-30 03:25 | 21.67632 | 39.16665 | 36 ft | 10 kts | 329° |
| 2026-04-30 03:25 | 21.67644 | 39.16598 | 36 ft | 10 kts | 254° |
| 2026-04-30 03:25 | 21.67622 | 39.16531 | 36 ft | 10 kts | 250° |
| 2026-04-30 03:26 | 21.67599 | 39.16462 | 36 ft | 10 kts | 250° |
| 2026-04-30 03:26 | 21.67576 | 39.16394 | 35 ft | 10 kts | 250° |
| 2026-04-30 03:26 | 21.67553 | 39.16326 | 35 ft | 10 kts | 250° |
| 2026-04-30 03:26 | 21.67530 | 39.16257 | 35 ft | 10 kts | 250° |
| 2026-04-30 03:27 | 21.67507 | 39.16189 | 35 ft | 10 kts | 250° |
| 2026-04-30 03:27 | 21.67477 | 39.16155 | 35 ft | 10 kts | 203° |
| 2026-04-30 03:27 | 21.67437 | 39.16160 | 35 ft | 10 kts | 155° |
| 2026-04-30 03:27 | 21.67378 | 39.16189 | 35 ft | 10 kts | 158° |
| 2026-04-30 03:28 | 21.67316 | 39.16216 | 36 ft | 10 kts | 158° |
| 2026-04-30 03:28 | 21.67253 | 39.16243 | 36 ft | 10 kts | 159° |
| 2026-04-30 03:28 | 21.67189 | 39.16268 | 37 ft | 10 kts | 160° |
| 2026-04-30 03:28 | 21.67125 | 39.16294 | 37 ft | 10 kts | 160° |
| 2026-04-30 03:29 | 21.67062 | 39.16319 | 37 ft | 10 kts | 160° |
| 2026-04-30 03:29 | 21.66998 | 39.16344 | 38 ft | 10 kts | 160° |
| 2026-04-30 03:29 | 21.66934 | 39.16370 | 38 ft | 10 kts | 160° |
| 2026-04-30 03:29 | 21.66870 | 39.16395 | 39 ft | 10 kts | 160° |
| 2026-04-30 03:30 | 21.66806 | 39.16419 | 39 ft | 10 kts | 160° |
| 2026-04-30 03:30 | 21.66742 | 39.16444 | 39 ft | 10 kts | 160° |
| 2026-04-30 03:30 | 21.66679 | 39.16469 | 39 ft | 10 kts | 160° |
| 2026-04-30 03:30 | 21.66614 | 39.16494 | 39 ft | 10 kts | 160° |
| 2026-04-30 03:31 | 21.66552 | 39.16518 | 40 ft | 10 kts | 160° |
| 2026-04-30 03:31 | 21.66488 | 39.16544 | 40 ft | 10 kts | 160° |
| 2026-04-30 03:31 | 21.66432 | 39.16566 | 40 ft | 10 kts | 159° |
| 2026-04-30 03:31 | 21.66371 | 39.16591 | 40 ft | 10 kts | 159° |
| 2026-04-30 03:32 | 21.66308 | 39.16616 | 40 ft | 10 kts | 159° |
| 2026-04-30 03:32 | 21.66244 | 39.16642 | 40 ft | 10 kts | 159° |
| 2026-04-30 03:32 | 21.66184 | 39.16626 | 40 ft | 10 kts | 231° |
| 2026-04-30 03:32 | 21.66157 | 39.16559 | 39 ft | 10 kts | 251° |
| 2026-04-30 03:33 | 21.66141 | 39.16493 | 39 ft | 8 kts | 279° |
| 2026-04-30 03:33 | 21.66186 | 39.16460 | 38 ft | 9 kts | 339° |
| 2026-04-30 03:33 | 21.66335 | 39.16401 | 39 ft | 48 kts | 340° |
| 2026-04-30 03:33 | 21.66871 | 39.16191 | 39 ft | 115 kts | 340° |
| 2026-04-30 03:34 | 21.67812 | 39.15821 | 35 ft | 171 kts | 340° |
| 2026-04-30 03:34 | 21.69039 | 39.15336 | 222 ft | 192 kts | 340° |
| 2026-04-30 03:34 | 21.70292 | 39.14835 | 736 ft | 194 kts | 339° |
| 2026-04-30 03:34 | 21.71539 | 39.14340 | 1292 ft | 189 kts | 340° |
| 2026-04-30 03:35 | 21.72765 | 39.13862 | 1766 ft | 190 kts | 340° |
| 2026-04-30 03:35 | 21.74048 | 39.13370 | 1838 ft | 203 kts | 340° |
| 2026-04-30 03:35 | 21.75448 | 39.12830 | 2000 ft | 217 kts | 340° |
| 2026-04-30 03:35 | 21.76864 | 39.12273 | 2364 ft | 222 kts | 340° |
| 2026-04-30 03:36 | 21.78314 | 39.11691 | 2792 ft | 223 kts | 340° |
| 2026-04-30 03:36 | 21.79649 | 39.10887 | 3190 ft | 223 kts | 313° |
| 2026-04-30 03:36 | 21.80525 | 39.09461 | 3318 ft | 234 kts | 309° |
| 2026-04-30 03:36 | 21.81724 | 39.08245 | 3415 ft | 243 kts | 325° |
| 2026-04-30 03:37 | 21.83110 | 39.07128 | 3689 ft | 254 kts | 323° |
| 2026-04-30 03:37 | 21.84511 | 39.05918 | 4094 ft | 262 kts | 321° |
| 2026-04-30 03:37 | 21.85931 | 39.04658 | 4613 ft | 266 kts | 320° |
| 2026-04-30 03:37 | 21.87361 | 39.03370 | 5133 ft | 270 kts | 319° |
| 2026-04-30 03:38 | 21.88807 | 39.02055 | 5640 ft | 274 kts | 319° |
| 2026-04-30 03:38 | 21.90280 | 39.00713 | 6098 ft | 281 kts | 319° |
| 2026-04-30 03:38 | 21.91805 | 38.99367 | 6556 ft | 285 kts | 319° |
| 2026-04-30 03:38 | 21.93356 | 38.98011 | 7077 ft | 287 kts | 319° |
| 2026-04-30 03:39 | 21.94916 | 38.96648 | 7592 ft | 290 kts | 319° |
| 2026-04-30 03:39 | 21.96488 | 38.95272 | 8063 ft | 293 kts | 319° |
| 2026-04-30 03:39 | 21.98080 | 38.93877 | 8543 ft | 296 kts | 319° |
| 2026-04-30 03:39 | 21.99659 | 38.92492 | 9029 ft | 298 kts | 319° |
| 2026-04-30 03:40 | 22.01275 | 38.91074 | 9523 ft | 301 kts | 318° |
| 2026-04-30 03:40 | 22.02903 | 38.89644 | 9985 ft | 303 kts | 318° |
| 2026-04-30 03:40 | 22.04552 | 38.88193 | 10291 ft | 313 kts | 318° |
| 2026-04-30 03:40 | 22.06285 | 38.86665 | 10408 ft | 329 kts | 318° |
| 2026-04-30 03:41 | 22.08095 | 38.85068 | 10529 ft | 345 kts | 318° |
| 2026-04-30 03:41 | 22.09998 | 38.83389 | 10665 ft | 361 kts | 318° |
| 2026-04-30 03:41 | 22.11968 | 38.81653 | 10948 ft | 371 kts | 318° |
| 2026-04-30 03:41 | 22.13983 | 38.79877 | 11368 ft | 377 kts | 318° |
| 2026-04-30 03:42 | 22.16026 | 38.78077 | 11919 ft | 380 kts | 318° |
| 2026-04-30 03:42 | 22.18077 | 38.76270 | 12541 ft | 381 kts | 318° |
| 2026-04-30 03:42 | 22.20136 | 38.74456 | 13148 ft | 383 kts | 318° |
| 2026-04-30 03:42 | 22.22206 | 38.72629 | 13689 ft | 386 kts | 318° |
| 2026-04-30 03:43 | 22.24289 | 38.70790 | 14167 ft | 389 kts | 318° |
| 2026-04-30 03:43 | 22.26398 | 38.68926 | 14648 ft | 391 kts | 318° |
| 2026-04-30 03:43 | 22.28508 | 38.67062 | 15149 ft | 393 kts | 318° |
| 2026-04-30 03:43 | 22.30629 | 38.65185 | 15654 ft | 396 kts | 318° |
| 2026-04-30 03:44 | 22.32765 | 38.63296 | 16143 ft | 398 kts | 318° |
| 2026-04-30 03:44 | 22.34911 | 38.61397 | 16621 ft | 400 kts | 318° |
| 2026-04-30 03:44 | 22.37074 | 38.59481 | 17095 ft | 403 kts | 318° |
| 2026-04-30 03:44 | 22.39243 | 38.57560 | 17564 ft | 405 kts | 318° |
| 2026-04-30 03:45 | 22.41430 | 38.55622 | 18027 ft | 408 kts | 318° |
| 2026-04-30 03:45 | 22.43628 | 38.53673 | 18462 ft | 410 kts | 318° |
| 2026-04-30 03:45 | 22.45813 | 38.51735 | 18875 ft | 412 kts | 318° |
| 2026-04-30 03:45 | 22.48036 | 38.49763 | 19311 ft | 413 kts | 318° |
| 2026-04-30 03:46 | 22.50265 | 38.47784 | 19737 ft | 416 kts | 318° |
| 2026-04-30 03:46 | 22.52504 | 38.45796 | 20163 ft | 418 kts | 318° |
| 2026-04-30 03:46 | 22.54755 | 38.43796 | 20586 ft | 420 kts | 318° |
| 2026-04-30 03:46 | 22.57018 | 38.41785 | 21024 ft | 422 kts | 318° |
| 2026-04-30 03:47 | 22.59293 | 38.39761 | 21453 ft | 424 kts | 318° |
| 2026-04-30 03:47 | 22.61578 | 38.37728 | 21876 ft | 426 kts | 318° |
| 2026-04-30 03:47 | 22.63872 | 38.35686 | 22298 ft | 428 kts | 318° |
| 2026-04-30 03:47 | 22.66178 | 38.33633 | 22694 ft | 430 kts | 318° |
| 2026-04-30 03:48 | 22.68499 | 38.31565 | 23108 ft | 432 kts | 318° |
| 2026-04-30 03:48 | 22.70827 | 38.29490 | 23504 ft | 435 kts | 318° |
| 2026-04-30 03:48 | 22.73138 | 38.27430 | 23857 ft | 436 kts | 318° |
| 2026-04-30 03:48 | 22.75517 | 38.25308 | 24212 ft | 438 kts | 317° |
| 2026-04-30 03:49 | 22.77840 | 38.23234 | 24542 ft | 440 kts | 317° |
| 2026-04-30 03:49 | 22.80206 | 38.21122 | 24880 ft | 441 kts | 317° |
| 2026-04-30 03:49 | 22.82583 | 38.18998 | 25192 ft | 443 kts | 317° |
| 2026-04-30 03:49 | 22.84968 | 38.16866 | 25500 ft | 445 kts | 317° |
| 2026-04-30 03:50 | 22.87373 | 38.14715 | 25803 ft | 447 kts | 316° |
| 2026-04-30 03:50 | 22.89776 | 38.12566 | 26109 ft | 449 kts | 316° |
| 2026-04-30 03:50 | 22.92185 | 38.10409 | 26400 ft | 450 kts | 316° |
| 2026-04-30 03:50 | 22.94610 | 38.08237 | 26705 ft | 452 kts | 316° |
| 2026-04-30 03:51 | 22.97038 | 38.06062 | 26986 ft | 454 kts | 316° |
| 2026-04-30 03:51 | 22.99480 | 38.03874 | 27252 ft | 456 kts | 316° |
| 2026-04-30 03:51 | 23.01927 | 38.01679 | 27511 ft | 457 kts | 316° |
| 2026-04-30 03:51 | 23.04384 | 37.99475 | 27765 ft | 459 kts | 315° |
| 2026-04-30 03:52 | 23.06825 | 37.97283 | 28059 ft | 460 kts | 315° |
| 2026-04-30 03:52 | 23.09293 | 37.95067 | 28332 ft | 461 kts | 315° |
| 2026-04-30 03:52 | 23.11772 | 37.92841 | 28603 ft | 461 kts | 315° |
| 2026-04-30 03:52 | 23.14250 | 37.90614 | 28829 ft | 463 kts | 315° |
| 2026-04-30 03:53 | 23.16740 | 37.88374 | 29046 ft | 464 kts | 315° |
| 2026-04-30 03:53 | 23.19231 | 37.86132 | 29218 ft | 466 kts | 315° |
| 2026-04-30 03:53 | 23.21735 | 37.83877 | 29405 ft | 468 kts | 315° |
| 2026-04-30 03:53 | 23.24245 | 37.81616 | 29604 ft | 469 kts | 315° |
| 2026-04-30 03:54 | 23.26756 | 37.79354 | 29840 ft | 469 kts | 315° |
| 2026-04-30 03:54 | 23.29242 | 37.77112 | 29893 ft | 470 kts | 315° |
| 2026-04-30 03:54 | 23.34301 | 37.72547 | 29929 ft | 473 kts | 315° |
| 2026-04-30 03:55 | 23.39368 | 37.67971 | 29932 ft | 472 kts | 315° |
| 2026-04-30 03:55 | 23.44430 | 37.63396 | 29940 ft | 472 kts | 315° |
| 2026-04-30 03:56 | 23.48630 | 37.59595 | 29939 ft | 472 kts | 315° |
| 2026-04-30 03:56 | 23.53676 | 37.55024 | 29935 ft | 471 kts | 315° |
| 2026-04-30 03:57 | 23.58731 | 37.50440 | 29931 ft | 471 kts | 315° |
| 2026-04-30 03:57 | 23.63777 | 37.45860 | 29943 ft | 471 kts | 315° |
| 2026-04-30 03:58 | 23.68803 | 37.41293 | 29936 ft | 470 kts | 315° |
| 2026-04-30 03:58 | 23.73795 | 37.36752 | 29919 ft | 470 kts | 315° |
| 2026-04-30 03:59 | 23.78814 | 37.32182 | 29937 ft | 469 kts | 315° |
| 2026-04-30 03:59 | 23.83816 | 37.27622 | 29929 ft | 468 kts | 315° |
| 2026-04-30 04:00 | 23.88807 | 37.23068 | 29941 ft | 467 kts | 315° |
| 2026-04-30 04:00 | 23.93782 | 37.18524 | 29938 ft | 466 kts | 315° |
| 2026-04-30 04:01 | 23.98751 | 37.13980 | 29934 ft | 465 kts | 315° |
| 2026-04-30 04:01 | 24.03713 | 37.09438 | 29934 ft | 464 kts | 315° |
| 2026-04-30 04:02 | 24.08673 | 37.04893 | 29957 ft | 464 kts | 315° |
| 2026-04-30 04:02 | 24.13599 | 37.00374 | 29949 ft | 465 kts | 315° |
| 2026-04-30 04:03 | 24.18552 | 36.95826 | 29937 ft | 464 kts | 315° |
| 2026-04-30 04:03 | 24.23495 | 36.91284 | 29932 ft | 463 kts | 315° |
| 2026-04-30 04:04 | 24.28428 | 36.86744 | 29936 ft | 462 kts | 315° |
| 2026-04-30 04:04 | 24.33351 | 36.82210 | 29937 ft | 462 kts | 315° |
| 2026-04-30 04:05 | 24.38270 | 36.77674 | 29934 ft | 462 kts | 315° |
| 2026-04-30 04:05 | 24.43187 | 36.73135 | 29967 ft | 462 kts | 315° |
| 2026-04-30 04:06 | 24.48103 | 36.68593 | 29944 ft | 461 kts | 315° |
| 2026-04-30 04:06 | 24.53017 | 36.64047 | 29934 ft | 461 kts | 315° |
| 2026-04-30 04:07 | 24.57917 | 36.59510 | 29934 ft | 460 kts | 315° |
| 2026-04-30 04:08 | 24.65228 | 36.52732 | 29937 ft | 460 kts | 315° |
| 2026-04-30 04:08 | 24.70122 | 36.48187 | 29945 ft | 460 kts | 315° |
| 2026-04-30 04:09 | 24.75013 | 36.43641 | 29936 ft | 460 kts | 315° |
| 2026-04-30 04:09 | 24.79909 | 36.39086 | 29940 ft | 460 kts | 315° |
| 2026-04-30 04:10 | 24.84768 | 36.34561 | 29930 ft | 461 kts | 315° |
| 2026-04-30 04:10 | 24.89661 | 36.29998 | 29935 ft | 461 kts | 315° |
| 2026-04-30 04:11 | 24.94551 | 36.25434 | 29937 ft | 461 kts | 315° |
| 2026-04-30 04:11 | 24.99447 | 36.20859 | 29936 ft | 461 kts | 315° |
| 2026-04-30 04:12 | 25.04334 | 36.16288 | 29929 ft | 461 kts | 315° |
| 2026-04-30 04:12 | 25.09222 | 36.11711 | 29928 ft | 461 kts | 315° |
| 2026-04-30 04:13 | 25.14111 | 36.07127 | 29938 ft | 461 kts | 315° |
| 2026-04-30 04:13 | 25.18970 | 36.02567 | 29927 ft | 461 kts | 315° |
| 2026-04-30 04:14 | 25.23855 | 35.97978 | 29929 ft | 461 kts | 315° |
| 2026-04-30 04:14 | 25.28733 | 35.93390 | 29936 ft | 460 kts | 315° |
| 2026-04-30 04:15 | 25.33616 | 35.88793 | 29935 ft | 460 kts | 315° |
| 2026-04-30 04:15 | 25.38487 | 35.84201 | 29936 ft | 460 kts | 315° |
| 2026-04-30 04:16 | 25.43358 | 35.79605 | 29938 ft | 460 kts | 315° |
| 2026-04-30 04:16 | 25.48233 | 35.74999 | 29936 ft | 461 kts | 315° |
| 2026-04-30 04:17 | 25.53108 | 35.70388 | 29951 ft | 460 kts | 315° |
| 2026-04-30 04:17 | 25.57976 | 35.65780 | 29937 ft | 460 kts | 315° |
| 2026-04-30 04:18 | 25.62810 | 35.61198 | 29931 ft | 460 kts | 315° |
| 2026-04-30 04:18 | 25.67669 | 35.56588 | 29934 ft | 460 kts | 315° |
| 2026-04-30 04:19 | 25.72533 | 35.51968 | 29956 ft | 460 kts | 315° |
| 2026-04-30 04:19 | 25.77389 | 35.47350 | 29939 ft | 460 kts | 316° |
| 2026-04-30 04:20 | 25.82254 | 35.42718 | 29943 ft | 460 kts | 316° |
| 2026-04-30 04:20 | 25.87109 | 35.38090 | 29938 ft | 460 kts | 316° |
| 2026-04-30 04:21 | 25.91960 | 35.33462 | 29947 ft | 460 kts | 316° |
| 2026-04-30 04:21 | 25.96815 | 35.28824 | 29938 ft | 460 kts | 316° |
| 2026-04-30 04:22 | 26.01630 | 35.24219 | 29948 ft | 460 kts | 316° |
| 2026-04-30 04:22 | 26.06473 | 35.19582 | 29943 ft | 460 kts | 316° |
| 2026-04-30 04:23 | 26.11324 | 35.14932 | 29952 ft | 459 kts | 316° |
| 2026-04-30 04:23 | 26.16166 | 35.10286 | 29958 ft | 460 kts | 315° |
| 2026-04-30 04:24 | 26.21021 | 35.05622 | 29951 ft | 460 kts | 315° |
| 2026-04-30 04:24 | 26.25843 | 35.00984 | 29953 ft | 460 kts | 315° |
| 2026-04-30 04:25 | 26.30686 | 34.96320 | 29956 ft | 460 kts | 316° |
| 2026-04-30 04:25 | 26.35530 | 34.91651 | 29949 ft | 460 kts | 316° |
| 2026-04-30 04:26 | 26.40364 | 34.86987 | 29952 ft | 459 kts | 316° |
| 2026-04-30 04:26 | 26.45202 | 34.82313 | 29950 ft | 459 kts | 316° |
| 2026-04-30 04:27 | 26.50036 | 34.77636 | 29969 ft | 459 kts | 315° |
| 2026-04-30 04:27 | 26.54874 | 34.72950 | 29956 ft | 460 kts | 315° |
| 2026-04-30 04:28 | 26.59714 | 34.68258 | 29957 ft | 461 kts | 315° |
| 2026-04-30 04:28 | 26.64529 | 34.63584 | 29953 ft | 461 kts | 315° |
| 2026-04-30 04:29 | 26.69372 | 34.58877 | 29953 ft | 461 kts | 315° |
| 2026-04-30 04:29 | 26.74218 | 34.54162 | 29956 ft | 461 kts | 315° |
| 2026-04-30 04:30 | 26.79056 | 34.49449 | 29956 ft | 461 kts | 315° |
| 2026-04-30 04:30 | 26.83899 | 34.44727 | 29977 ft | 461 kts | 315° |
| 2026-04-30 04:31 | 26.88697 | 34.40042 | 29964 ft | 460 kts | 315° |
| 2026-04-30 04:31 | 26.93508 | 34.35339 | 29963 ft | 458 kts | 315° |
| 2026-04-30 04:32 | 26.98309 | 34.30640 | 29961 ft | 457 kts | 315° |
| 2026-04-30 04:32 | 27.03094 | 34.25951 | 29947 ft | 457 kts | 315° |
| 2026-04-30 04:33 | 27.07880 | 34.21256 | 29974 ft | 457 kts | 315° |
| 2026-04-30 04:33 | 27.12660 | 34.16562 | 29955 ft | 456 kts | 315° |
| 2026-04-30 04:34 | 27.17437 | 34.11864 | 29981 ft | 456 kts | 315° |
| 2026-04-30 04:34 | 27.22209 | 34.07166 | 29970 ft | 456 kts | 315° |
| 2026-04-30 04:35 | 27.26975 | 34.02468 | 29965 ft | 456 kts | 315° |
| 2026-04-30 04:35 | 27.31738 | 33.97768 | 29966 ft | 455 kts | 315° |
| 2026-04-30 04:36 | 27.36465 | 33.93098 | 29967 ft | 455 kts | 315° |
| 2026-04-30 04:36 | 27.41217 | 33.88398 | 29966 ft | 454 kts | 315° |
| 2026-04-30 04:37 | 27.45963 | 33.83697 | 29966 ft | 454 kts | 315° |
| 2026-04-30 04:37 | 27.50712 | 33.78988 | 29975 ft | 454 kts | 315° |
| 2026-04-30 04:38 | 27.55449 | 33.74285 | 29978 ft | 454 kts | 315° |
| 2026-04-30 04:38 | 27.60187 | 33.69577 | 29970 ft | 454 kts | 315° |
| 2026-04-30 04:39 | 27.64923 | 33.64864 | 29972 ft | 454 kts | 315° |
| 2026-04-30 04:39 | 27.69657 | 33.60147 | 29980 ft | 455 kts | 315° |
| 2026-04-30 04:40 | 27.74406 | 33.55410 | 29976 ft | 455 kts | 315° |
| 2026-04-30 04:40 | 27.79127 | 33.50694 | 29979 ft | 456 kts | 315° |
| 2026-04-30 04:41 | 27.83882 | 33.45940 | 29985 ft | 456 kts | 315° |
| 2026-04-30 04:41 | 27.88640 | 33.41177 | 29981 ft | 457 kts | 315° |
| 2026-04-30 04:42 | 27.93407 | 33.36399 | 29998 ft | 457 kts | 315° |
| 2026-04-30 04:42 | 27.98122 | 33.31667 | 29994 ft | 456 kts | 315° |
| 2026-04-30 04:43 | 28.02863 | 33.26904 | 29994 ft | 456 kts | 315° |
| 2026-04-30 04:43 | 28.07602 | 33.22136 | 30007 ft | 455 kts | 315° |
| 2026-04-30 04:44 | 28.12331 | 33.17372 | 30008 ft | 455 kts | 315° |
| 2026-04-30 04:44 | 28.16261 | 33.13409 | 30026 ft | 454 kts | 315° |
| 2026-04-30 04:45 | 28.20977 | 33.08649 | 30043 ft | 453 kts | 315° |
| 2026-04-30 04:45 | 28.25688 | 33.03886 | 30035 ft | 453 kts | 315° |
| 2026-04-30 04:46 | 28.30389 | 32.99128 | 30028 ft | 453 kts | 315° |
| 2026-04-30 04:46 | 28.35088 | 32.94367 | 30031 ft | 452 kts | 315° |
| 2026-04-30 04:47 | 28.39786 | 32.89600 | 30041 ft | 453 kts | 315° |
| 2026-04-30 04:47 | 28.44477 | 32.84835 | 30042 ft | 452 kts | 315° |
| 2026-04-30 04:48 | 28.49163 | 32.80070 | 30045 ft | 451 kts | 315° |
| 2026-04-30 04:48 | 28.53802 | 32.75346 | 30049 ft | 450 kts | 315° |
| 2026-04-30 04:49 | 28.58477 | 32.70577 | 30066 ft | 452 kts | 315° |
| 2026-04-30 04:49 | 28.63163 | 32.65793 | 30063 ft | 453 kts | 315° |
| 2026-04-30 04:50 | 28.67859 | 32.60993 | 30068 ft | 454 kts | 315° |
| 2026-04-30 04:50 | 28.72560 | 32.56182 | 30063 ft | 454 kts | 315° |
| 2026-04-30 04:51 | 28.77254 | 32.51373 | 30055 ft | 453 kts | 315° |
| 2026-04-30 04:51 | 28.81906 | 32.46601 | 30075 ft | 452 kts | 315° |
| 2026-04-30 04:52 | 28.86579 | 32.41797 | 30068 ft | 452 kts | 315° |
| 2026-04-30 04:52 | 28.91267 | 32.36976 | 30052 ft | 454 kts | 315° |
| 2026-04-30 04:53 | 28.95966 | 32.32136 | 30058 ft | 455 kts | 315° |
| 2026-04-30 04:53 | 29.00674 | 32.27282 | 30062 ft | 455 kts | 315° |
| 2026-04-30 04:54 | 29.05374 | 32.22429 | 30058 ft | 455 kts | 315° |
| 2026-04-30 04:54 | 29.10037 | 32.17609 | 30060 ft | 454 kts | 315° |
| 2026-04-30 04:55 | 29.14716 | 32.12765 | 30052 ft | 453 kts | 315° |
| 2026-04-30 04:55 | 29.19387 | 32.07923 | 30053 ft | 453 kts | 315° |
| 2026-04-30 04:56 | 29.24053 | 32.03081 | 30051 ft | 452 kts | 315° |
| 2026-04-30 04:56 | 29.28713 | 31.98238 | 30053 ft | 451 kts | 315° |
| 2026-04-30 04:57 | 29.33348 | 31.93415 | 30050 ft | 450 kts | 315° |
| 2026-04-30 04:57 | 29.37985 | 31.88583 | 30049 ft | 450 kts | 315° |
| 2026-04-30 04:58 | 29.42592 | 31.83777 | 30050 ft | 450 kts | 315° |
| 2026-04-30 04:58 | 29.47220 | 31.78943 | 30066 ft | 450 kts | 315° |
| 2026-04-30 04:59 | 29.51838 | 31.74113 | 30068 ft | 449 kts | 315° |
| 2026-04-30 04:59 | 29.56457 | 31.69277 | 30071 ft | 449 kts | 315° |
| 2026-04-30 05:00 | 29.61075 | 31.64432 | 30060 ft | 450 kts | 315° |
| 2026-04-30 05:00 | 29.65702 | 31.59574 | 30059 ft | 451 kts | 315° |
| 2026-04-30 05:01 | 29.70335 | 31.54703 | 30055 ft | 452 kts | 315° |
| 2026-04-30 05:01 | 29.74980 | 31.49814 | 30049 ft | 452 kts | 315° |
| 2026-04-30 05:02 | 29.79623 | 31.44919 | 30051 ft | 452 kts | 314° |
| 2026-04-30 05:02 | 29.84228 | 31.40060 | 30050 ft | 451 kts | 314° |
| 2026-04-30 05:03 | 29.88856 | 31.35168 | 30051 ft | 451 kts | 314° |
| 2026-04-30 05:03 | 29.93482 | 31.30273 | 30055 ft | 451 kts | 315° |
| 2026-04-30 05:04 | 29.98108 | 31.25370 | 30053 ft | 451 kts | 315° |
| 2026-04-30 05:04 | 30.02730 | 31.20466 | 30052 ft | 451 kts | 315° |
| 2026-04-30 05:05 | 30.07347 | 31.15560 | 30048 ft | 450 kts | 315° |
| 2026-04-30 05:05 | 30.11927 | 31.10688 | 30049 ft | 450 kts | 315° |
| 2026-04-30 05:06 | 30.18838 | 31.03324 | 30052 ft | 450 kts | 315° |
| 2026-04-30 05:06 | 30.23442 | 30.98409 | 30050 ft | 450 kts | 315° |
| 2026-04-30 05:07 | 30.28046 | 30.93487 | 30056 ft | 450 kts | 315° |
| 2026-04-30 05:07 | 30.32643 | 30.88568 | 30053 ft | 449 kts | 315° |
| 2026-04-30 05:08 | 30.37225 | 30.83657 | 30052 ft | 448 kts | 315° |
| 2026-04-30 05:08 | 30.41797 | 30.78751 | 30058 ft | 448 kts | 315° |
| 2026-04-30 05:09 | 30.46340 | 30.73869 | 30053 ft | 447 kts | 315° |
| 2026-04-30 05:09 | 30.50900 | 30.68962 | 30055 ft | 447 kts | 315° |
| 2026-04-30 05:10 | 30.55460 | 30.64048 | 30059 ft | 448 kts | 315° |
| 2026-04-30 05:10 | 30.60027 | 30.59120 | 30072 ft | 448 kts | 315° |
| 2026-04-30 05:11 | 30.64582 | 30.54200 | 30060 ft | 446 kts | 315° |
| 2026-04-30 05:11 | 30.69115 | 30.49296 | 30057 ft | 445 kts | 314° |
| 2026-04-30 05:12 | 30.73639 | 30.44396 | 30057 ft | 444 kts | 314° |
| 2026-04-30 05:12 | 30.78152 | 30.39500 | 30053 ft | 443 kts | 314° |
| 2026-04-30 05:13 | 30.82663 | 30.34600 | 30058 ft | 443 kts | 314° |
| 2026-04-30 05:13 | 30.87172 | 30.29695 | 30057 ft | 444 kts | 314° |
| 2026-04-30 05:14 | 30.91687 | 30.24777 | 30059 ft | 445 kts | 314° |
| 2026-04-30 05:14 | 30.96176 | 30.19881 | 30051 ft | 445 kts | 314° |
| 2026-04-30 05:15 | 31.00712 | 30.14927 | 30059 ft | 444 kts | 314° |
| 2026-04-30 05:15 | 31.05188 | 30.10031 | 30074 ft | 443 kts | 314° |
| 2026-04-30 05:16 | 31.09683 | 30.05108 | 30052 ft | 442 kts | 314° |
| 2026-04-30 05:16 | 31.14163 | 30.00195 | 30053 ft | 442 kts | 314° |
| 2026-04-30 05:17 | 31.18839 | 29.95521 | 30061 ft | 444 kts | 321° |
| 2026-04-30 05:17 | 31.24111 | 29.91710 | 30064 ft | 447 kts | 328° |
| 2026-04-30 05:18 | 31.29626 | 29.88309 | 30052 ft | 448 kts | 328° |
| 2026-04-30 05:18 | 31.35126 | 29.84900 | 30052 ft | 447 kts | 328° |
| 2026-04-30 05:19 | 31.40581 | 29.81493 | 30056 ft | 447 kts | 328° |
| 2026-04-30 05:19 | 31.46063 | 29.78057 | 30062 ft | 447 kts | 328° |
| 2026-04-30 05:20 | 31.51541 | 29.74617 | 30065 ft | 447 kts | 328° |
| 2026-04-30 05:20 | 31.57018 | 29.71174 | 30079 ft | 447 kts | 328° |
| 2026-04-30 05:21 | 31.62500 | 29.67724 | 30071 ft | 446 kts | 328° |
| 2026-04-30 05:21 | 31.67970 | 29.64276 | 30073 ft | 446 kts | 328° |
| 2026-04-30 05:22 | 31.73407 | 29.60845 | 30074 ft | 446 kts | 328° |
| 2026-04-30 05:22 | 31.78868 | 29.57393 | 30075 ft | 445 kts | 328° |
| 2026-04-30 05:23 | 31.84326 | 29.53939 | 30093 ft | 446 kts | 328° |
| 2026-04-30 05:23 | 31.89790 | 29.50476 | 30085 ft | 445 kts | 328° |
| 2026-04-30 05:24 | 31.95239 | 29.47018 | 30078 ft | 445 kts | 327° |
| 2026-04-30 05:24 | 32.00694 | 29.43552 | 30082 ft | 445 kts | 327° |
| 2026-04-30 05:25 | 32.06109 | 29.40096 | 30081 ft | 445 kts | 327° |
| 2026-04-30 05:25 | 32.11548 | 29.36616 | 30102 ft | 445 kts | 327° |
| 2026-04-30 05:26 | 32.16999 | 29.33124 | 30084 ft | 445 kts | 327° |
| 2026-04-30 05:26 | 32.22446 | 29.29631 | 30076 ft | 445 kts | 327° |
| 2026-04-30 05:27 | 32.27900 | 29.26139 | 30079 ft | 445 kts | 327° |
| 2026-04-30 05:27 | 32.33350 | 29.22645 | 30077 ft | 445 kts | 327° |
| 2026-04-30 05:28 | 32.38795 | 29.19149 | 30076 ft | 445 kts | 327° |
| 2026-04-30 05:28 | 32.44203 | 29.15670 | 30076 ft | 445 kts | 327° |
| 2026-04-30 05:29 | 32.49650 | 29.12162 | 30074 ft | 446 kts | 327° |
| 2026-04-30 05:29 | 32.55097 | 29.08648 | 30073 ft | 446 kts | 327° |
| 2026-04-30 05:30 | 32.60544 | 29.05131 | 30074 ft | 445 kts | 327° |
| 2026-04-30 05:30 | 32.65992 | 29.01607 | 30073 ft | 445 kts | 327° |
| 2026-04-30 05:31 | 32.70518 | 28.98675 | 30075 ft | 446 kts | 327° |
| 2026-04-30 05:31 | 32.75976 | 28.95136 | 30073 ft | 447 kts | 327° |
| 2026-04-30 05:32 | 32.81430 | 28.91594 | 30070 ft | 447 kts | 327° |
| 2026-04-30 05:32 | 32.86886 | 28.88046 | 30071 ft | 447 kts | 327° |
| 2026-04-30 05:33 | 32.92343 | 28.84492 | 30069 ft | 447 kts | 327° |
| 2026-04-30 05:33 | 32.97803 | 28.80932 | 30079 ft | 448 kts | 327° |
| 2026-04-30 05:34 | 33.03281 | 28.77354 | 30074 ft | 449 kts | 327° |
| 2026-04-30 05:34 | 33.08730 | 28.73790 | 30071 ft | 449 kts | 327° |
| 2026-04-30 05:35 | 33.14224 | 28.70192 | 30066 ft | 450 kts | 327° |
| 2026-04-30 05:35 | 33.19711 | 28.66593 | 30066 ft | 450 kts | 327° |
| 2026-04-30 05:36 | 33.25205 | 28.62985 | 30076 ft | 450 kts | 327° |
| 2026-04-30 05:36 | 33.30662 | 28.59395 | 30077 ft | 451 kts | 327° |
| 2026-04-30 05:37 | 33.36165 | 28.55770 | 30077 ft | 452 kts | 327° |
| 2026-04-30 05:37 | 33.41680 | 28.52132 | 30057 ft | 453 kts | 327° |
| 2026-04-30 05:38 | 33.47213 | 28.48476 | 30053 ft | 453 kts | 327° |
| 2026-04-30 05:38 | 33.52732 | 28.44825 | 30068 ft | 453 kts | 328° |
| 2026-04-30 05:39 | 33.58232 | 28.41180 | 30062 ft | 454 kts | 328° |
| 2026-04-30 05:39 | 33.63775 | 28.37501 | 30059 ft | 456 kts | 328° |
| 2026-04-30 05:40 | 33.69323 | 28.33814 | 30063 ft | 456 kts | 328° |
| 2026-04-30 05:40 | 33.74881 | 28.30114 | 30061 ft | 457 kts | 328° |
| 2026-04-30 05:41 | 33.80435 | 28.26412 | 30078 ft | 456 kts | 328° |
| 2026-04-30 05:41 | 33.85984 | 28.22674 | 30068 ft | 457 kts | 328° |
| 2026-04-30 05:42 | 33.91523 | 28.18919 | 30057 ft | 457 kts | 327° |
| 2026-04-30 05:42 | 33.97070 | 28.15156 | 30058 ft | 457 kts | 327° |
| 2026-04-30 05:43 | 34.02612 | 28.11393 | 30059 ft | 457 kts | 327° |
| 2026-04-30 05:43 | 34.08162 | 28.07620 | 30081 ft | 457 kts | 328° |
| 2026-04-30 05:44 | 34.13674 | 28.03867 | 30054 ft | 457 kts | 328° |
| 2026-04-30 05:44 | 34.19215 | 28.00089 | 30052 ft | 457 kts | 328° |
| 2026-04-30 05:45 | 34.24738 | 27.96318 | 30053 ft | 456 kts | 328° |
| 2026-04-30 05:45 | 34.30263 | 27.92539 | 30053 ft | 456 kts | 328° |
| 2026-04-30 05:46 | 34.35779 | 27.88760 | 30075 ft | 456 kts | 328° |
| 2026-04-30 05:46 | 34.41299 | 27.84973 | 30064 ft | 456 kts | 328° |
| 2026-04-30 05:47 | 34.46818 | 27.81181 | 30054 ft | 456 kts | 328° |
| 2026-04-30 05:47 | 34.52298 | 27.77410 | 30049 ft | 456 kts | 328° |
| 2026-04-30 05:48 | 34.57811 | 27.73610 | 30049 ft | 456 kts | 328° |
| 2026-04-30 05:48 | 34.63329 | 27.69802 | 30068 ft | 456 kts | 328° |
| 2026-04-30 05:49 | 34.68855 | 27.65981 | 30056 ft | 457 kts | 328° |
| 2026-04-30 05:49 | 34.74395 | 27.62145 | 30056 ft | 458 kts | 328° |
| 2026-04-30 05:50 | 34.79946 | 27.58296 | 30049 ft | 459 kts | 328° |
| 2026-04-30 05:50 | 34.85495 | 27.54441 | 30038 ft | 460 kts | 328° |
| 2026-04-30 05:51 | 34.91049 | 27.50578 | 30046 ft | 460 kts | 328° |
| 2026-04-30 05:51 | 34.96617 | 27.46698 | 30069 ft | 462 kts | 328° |
| 2026-04-30 05:52 | 35.02170 | 27.42822 | 30042 ft | 463 kts | 328° |
| 2026-04-30 05:52 | 35.07764 | 27.38913 | 30040 ft | 463 kts | 328° |
| 2026-04-30 05:53 | 35.13358 | 27.34996 | 30037 ft | 463 kts | 328° |
| 2026-04-30 05:53 | 35.18944 | 27.31079 | 30036 ft | 462 kts | 328° |
| 2026-04-30 05:54 | 35.24515 | 27.27166 | 30038 ft | 462 kts | 328° |
| 2026-04-30 05:54 | 35.30074 | 27.23255 | 30038 ft | 461 kts | 328° |
| 2026-04-30 05:55 | 35.35638 | 27.19334 | 30039 ft | 461 kts | 328° |
| 2026-04-30 05:55 | 35.41183 | 27.15412 | 30050 ft | 460 kts | 327° |
| 2026-04-30 05:56 | 35.46375 | 27.10887 | 30070 ft | 458 kts | 321° |
| 2026-04-30 05:56 | 35.51398 | 27.06137 | 30047 ft | 459 kts | 321° |
| 2026-04-30 05:57 | 35.56470 | 27.01361 | 30050 ft | 460 kts | 321° |
| 2026-04-30 05:57 | 35.61562 | 26.96579 | 30049 ft | 461 kts | 321° |
| 2026-04-30 05:58 | 35.66660 | 26.91790 | 30050 ft | 461 kts | 321° |
| 2026-04-30 05:58 | 35.71755 | 26.86994 | 30049 ft | 461 kts | 321° |
| 2026-04-30 05:59 | 35.76846 | 26.82195 | 30055 ft | 461 kts | 321° |
| 2026-04-30 05:59 | 35.81931 | 26.77393 | 30051 ft | 461 kts | 321° |
| 2026-04-30 06:00 | 35.87012 | 26.72586 | 30055 ft | 460 kts | 321° |
| 2026-04-30 06:00 | 35.92099 | 26.67766 | 30051 ft | 460 kts | 321° |
| 2026-04-30 06:01 | 35.97181 | 26.62942 | 30047 ft | 460 kts | 321° |
| 2026-04-30 06:01 | 36.02220 | 26.58151 | 30056 ft | 460 kts | 321° |
| 2026-04-30 06:02 | 36.07309 | 26.53306 | 30054 ft | 462 kts | 321° |
| 2026-04-30 06:02 | 36.12412 | 26.48437 | 30056 ft | 463 kts | 321° |
| 2026-04-30 06:03 | 36.17511 | 26.43565 | 30053 ft | 464 kts | 321° |
| 2026-04-30 06:03 | 36.22628 | 26.38667 | 30052 ft | 464 kts | 321° |
| 2026-04-30 06:04 | 36.27706 | 26.33799 | 30057 ft | 464 kts | 321° |
| 2026-04-30 06:05 | 36.35367 | 26.26438 | 30051 ft | 465 kts | 321° |
| 2026-04-30 06:05 | 36.40471 | 26.21524 | 30060 ft | 464 kts | 321° |
| 2026-04-30 06:06 | 36.45573 | 26.16603 | 30053 ft | 464 kts | 321° |
| 2026-04-30 06:06 | 36.50673 | 26.11676 | 30057 ft | 463 kts | 321° |
| 2026-04-30 06:07 | 36.55726 | 26.06786 | 30057 ft | 463 kts | 321° |
| 2026-04-30 06:07 | 36.60807 | 26.01860 | 30062 ft | 463 kts | 321° |
| 2026-04-30 06:08 | 36.65900 | 25.96913 | 30057 ft | 464 kts | 321° |
| 2026-04-30 06:08 | 36.70996 | 25.91956 | 30068 ft | 464 kts | 321° |
| 2026-04-30 06:09 | 36.76087 | 25.86995 | 30060 ft | 464 kts | 321° |
| 2026-04-30 06:09 | 36.81164 | 25.82039 | 30064 ft | 463 kts | 321° |
| 2026-04-30 06:10 | 36.86206 | 25.77109 | 30052 ft | 463 kts | 321° |
| 2026-04-30 06:10 | 36.91272 | 25.72147 | 30065 ft | 463 kts | 320° |
| 2026-04-30 06:11 | 36.96339 | 25.67173 | 30055 ft | 463 kts | 320° |
| 2026-04-30 06:11 | 37.01412 | 25.62187 | 30061 ft | 464 kts | 320° |
| 2026-04-30 06:12 | 37.06483 | 25.57193 | 30044 ft | 464 kts | 320° |
| 2026-04-30 06:12 | 37.11552 | 25.52191 | 30042 ft | 462 kts | 320° |
| 2026-04-30 06:13 | 37.16604 | 25.47199 | 30041 ft | 463 kts | 320° |
| 2026-04-30 06:13 | 37.21658 | 25.42197 | 30051 ft | 463 kts | 320° |
| 2026-04-30 06:14 | 37.26718 | 25.37179 | 30051 ft | 464 kts | 320° |
| 2026-04-30 06:14 | 37.31928 | 25.32369 | 30054 ft | 465 kts | 323° |
| 2026-04-30 06:15 | 37.37224 | 25.27707 | 30049 ft | 465 kts | 323° |
| 2026-04-30 06:15 | 37.42490 | 25.23060 | 30049 ft | 465 kts | 323° |
| 2026-04-30 06:16 | 37.47777 | 25.18357 | 30058 ft | 465 kts | 323° |
| 2026-04-30 06:16 | 37.53061 | 25.13635 | 30050 ft | 466 kts | 323° |
| 2026-04-30 06:17 | 37.58348 | 25.08899 | 30047 ft | 466 kts | 323° |
| 2026-04-30 06:17 | 37.63633 | 25.04160 | 30061 ft | 466 kts | 322° |
| 2026-04-30 06:18 | 37.68883 | 24.99443 | 30061 ft | 466 kts | 322° |
| 2026-04-30 06:18 | 37.74159 | 24.94696 | 30067 ft | 465 kts | 322° |
| 2026-04-30 06:19 | 37.79428 | 24.89946 | 30063 ft | 465 kts | 322° |
| 2026-04-30 06:19 | 37.84698 | 24.85185 | 30068 ft | 465 kts | 322° |
| 2026-04-30 06:20 | 37.89962 | 24.80421 | 30055 ft | 465 kts | 322° |
| 2026-04-30 06:20 | 37.94336 | 24.76458 | 30082 ft | 465 kts | 322° |
| 2026-04-30 06:21 | 37.99602 | 24.71677 | 30069 ft | 466 kts | 322° |
| 2026-04-30 06:21 | 38.04870 | 24.66885 | 30072 ft | 466 kts | 322° |
| 2026-04-30 06:22 | 38.10141 | 24.62082 | 30073 ft | 466 kts | 322° |
| 2026-04-30 06:22 | 38.15415 | 24.57270 | 30068 ft | 466 kts | 322° |
| 2026-04-30 06:23 | 38.20679 | 24.52457 | 30066 ft | 466 kts | 322° |
| 2026-04-30 06:23 | 38.25935 | 24.47645 | 30081 ft | 466 kts | 322° |
| 2026-04-30 06:24 | 38.31171 | 24.42843 | 30075 ft | 466 kts | 322° |
| 2026-04-30 06:24 | 38.36453 | 24.37986 | 30376 ft | 468 kts | 322° |
| 2026-04-30 06:24 | 38.39090 | 24.35560 | 30727 ft | 466 kts | 322° |
| 2026-04-30 06:25 | 38.41707 | 24.33151 | 31083 ft | 463 kts | 321° |
| 2026-04-30 06:25 | 38.44314 | 24.30746 | 31422 ft | 461 kts | 321° |
| 2026-04-30 06:25 | 38.46906 | 24.28350 | 31710 ft | 460 kts | 321° |
| 2026-04-30 06:25 | 38.49500 | 24.25947 | 31965 ft | 460 kts | 321° |
| 2026-04-30 06:26 | 38.52090 | 24.23545 | 31991 ft | 462 kts | 321° |
| 2026-04-30 06:26 | 38.57286 | 24.18721 | 32093 ft | 460 kts | 321° |
| 2026-04-30 06:27 | 38.62452 | 24.13917 | 32088 ft | 459 kts | 321° |
| 2026-04-30 06:27 | 38.67609 | 24.09113 | 32083 ft | 458 kts | 321° |
| 2026-04-30 06:28 | 38.72765 | 24.04300 | 32082 ft | 458 kts | 321° |
| 2026-04-30 06:28 | 38.77875 | 23.99522 | 32085 ft | 458 kts | 321° |
| 2026-04-30 06:29 | 38.83025 | 23.94697 | 32097 ft | 458 kts | 321° |
| 2026-04-30 06:29 | 38.88179 | 23.89860 | 32086 ft | 459 kts | 321° |
| 2026-04-30 06:30 | 38.93331 | 23.85017 | 32087 ft | 459 kts | 321° |
| 2026-04-30 06:30 | 38.98484 | 23.80163 | 32079 ft | 459 kts | 321° |
| 2026-04-30 06:31 | 39.03636 | 23.75300 | 32072 ft | 459 kts | 321° |
| 2026-04-30 06:31 | 39.08786 | 23.70431 | 32082 ft | 459 kts | 321° |
| 2026-04-30 06:32 | 39.13904 | 23.65584 | 32066 ft | 460 kts | 321° |
| 2026-04-30 06:32 | 39.18709 | 23.60214 | 32051 ft | 456 kts | 311° |
| 2026-04-30 06:33 | 39.22755 | 23.53897 | 32055 ft | 453 kts | 305° |
| 2026-04-30 06:33 | 39.26530 | 23.47456 | 32050 ft | 452 kts | 305° |
| 2026-04-30 06:34 | 39.30329 | 23.40989 | 32091 ft | 452 kts | 305° |
| 2026-04-30 06:34 | 39.34134 | 23.34532 | 32090 ft | 452 kts | 306° |
| 2026-04-30 06:35 | 39.37943 | 23.28069 | 32111 ft | 452 kts | 305° |
| 2026-04-30 06:35 | 39.41753 | 23.21591 | 32088 ft | 452 kts | 305° |
| 2026-04-30 06:36 | 39.45552 | 23.15120 | 32083 ft | 451 kts | 305° |
| 2026-04-30 06:36 | 39.49318 | 23.08689 | 32083 ft | 450 kts | 305° |
| 2026-04-30 06:37 | 39.53093 | 23.02232 | 32113 ft | 449 kts | 305° |
| 2026-04-30 06:37 | 39.56859 | 22.95776 | 32088 ft | 449 kts | 305° |
| 2026-04-30 06:38 | 39.60623 | 22.89309 | 32107 ft | 449 kts | 305° |
| 2026-04-30 06:38 | 39.64392 | 22.82821 | 32108 ft | 450 kts | 305° |
| 2026-04-30 06:39 | 39.68141 | 22.76355 | 32093 ft | 451 kts | 305° |
| 2026-04-30 06:39 | 39.71908 | 22.69845 | 32095 ft | 450 kts | 305° |
| 2026-04-30 06:40 | 39.75654 | 22.63358 | 32085 ft | 448 kts | 305° |
| 2026-04-30 06:40 | 39.79386 | 22.56879 | 32090 ft | 446 kts | 305° |
| 2026-04-30 06:41 | 39.83104 | 22.50416 | 32093 ft | 445 kts | 305° |
| 2026-04-30 06:41 | 39.86780 | 22.44010 | 32078 ft | 444 kts | 305° |
| 2026-04-30 06:42 | 39.90467 | 22.37565 | 32090 ft | 444 kts | 304° |
| 2026-04-30 06:42 | 39.94164 | 22.31104 | 32085 ft | 445 kts | 304° |
| 2026-04-30 06:43 | 39.97864 | 22.24615 | 32086 ft | 446 kts | 304° |
| 2026-04-30 06:43 | 40.01572 | 22.18098 | 32084 ft | 447 kts | 304° |
| 2026-04-30 06:44 | 40.05278 | 22.11574 | 32075 ft | 448 kts | 304° |
| 2026-04-30 06:44 | 40.08982 | 22.05057 | 32075 ft | 446 kts | 306° |
| 2026-04-30 06:45 | 40.13297 | 21.99207 | 32098 ft | 449 kts | 316° |
| 2026-04-30 06:45 | 40.18289 | 21.94312 | 32110 ft | 453 kts | 323° |
| 2026-04-30 06:46 | 40.23638 | 21.89886 | 32092 ft | 454 kts | 324° |
| 2026-04-30 06:46 | 40.28977 | 21.85477 | 32132 ft | 454 kts | 324° |
| 2026-04-30 06:47 | 40.34305 | 21.81026 | 32111 ft | 454 kts | 323° |
| 2026-04-30 06:47 | 40.39629 | 21.76549 | 32107 ft | 454 kts | 323° |
| 2026-04-30 06:48 | 40.44945 | 21.72067 | 32095 ft | 453 kts | 323° |
| 2026-04-30 06:48 | 40.50219 | 21.67613 | 32086 ft | 454 kts | 323° |
| 2026-04-30 06:49 | 40.55526 | 21.63123 | 32099 ft | 454 kts | 323° |
| 2026-04-30 06:49 | 40.60835 | 21.58623 | 32084 ft | 454 kts | 323° |
| 2026-04-30 06:50 | 40.66146 | 21.54113 | 32074 ft | 453 kts | 323° |
| 2026-04-30 06:50 | 40.71452 | 21.49598 | 32082 ft | 453 kts | 323° |
| 2026-04-30 06:51 | 40.76745 | 21.45085 | 32081 ft | 453 kts | 323° |
| 2026-04-30 06:51 | 40.82002 | 21.40595 | 32085 ft | 453 kts | 323° |
| 2026-04-30 06:52 | 40.87195 | 21.35905 | 32078 ft | 450 kts | 318° |
| 2026-04-30 06:52 | 40.91723 | 21.30249 | 32078 ft | 447 kts | 311° |
| 2026-04-30 06:53 | 40.96002 | 21.24292 | 32080 ft | 446 kts | 311° |
| 2026-04-30 06:53 | 41.00294 | 21.18348 | 32065 ft | 445 kts | 311° |
| 2026-04-30 06:54 | 41.04560 | 21.12448 | 32100 ft | 446 kts | 311° |
| 2026-04-30 06:54 | 41.08856 | 21.06503 | 32073 ft | 448 kts | 311° |
| 2026-04-30 06:55 | 41.13165 | 21.00531 | 32090 ft | 449 kts | 311° |
| 2026-04-30 06:55 | 41.17477 | 20.94543 | 32100 ft | 448 kts | 311° |
| 2026-04-30 06:56 | 41.21774 | 20.88559 | 32099 ft | 448 kts | 311° |
| 2026-04-30 06:56 | 41.26068 | 20.82568 | 32103 ft | 448 kts | 311° |
| 2026-04-30 06:57 | 41.30359 | 20.76569 | 32091 ft | 447 kts | 311° |
| 2026-04-30 06:57 | 41.34635 | 20.70582 | 32110 ft | 446 kts | 310° |
| 2026-04-30 06:58 | 41.38905 | 20.64587 | 32086 ft | 445 kts | 310° |
| 2026-04-30 06:58 | 41.43160 | 20.58602 | 32068 ft | 445 kts | 310° |
| 2026-04-30 06:59 | 41.47414 | 20.52605 | 32071 ft | 445 kts | 310° |
| 2026-04-30 06:59 | 41.51657 | 20.46614 | 32099 ft | 444 kts | 310° |
| 2026-04-30 07:00 | 41.55842 | 20.40646 | 32082 ft | 442 kts | 310° |
| 2026-04-30 07:00 | 41.60013 | 20.34636 | 32110 ft | 440 kts | 310° |
| 2026-04-30 07:01 | 41.64154 | 20.28655 | 32097 ft | 437 kts | 309° |
| 2026-04-30 07:01 | 41.68266 | 20.22711 | 32103 ft | 434 kts | 309° |
| 2026-04-30 07:02 | 41.72353 | 20.16794 | 32105 ft | 432 kts | 309° |
| 2026-04-30 07:02 | 41.76431 | 20.10879 | 32118 ft | 432 kts | 309° |
| 2026-04-30 07:03 | 41.80512 | 20.04947 | 32108 ft | 432 kts | 309° |
| 2026-04-30 07:03 | 41.84587 | 19.99011 | 32097 ft | 432 kts | 309° |
| 2026-04-30 07:04 | 41.88661 | 19.93066 | 32109 ft | 431 kts | 309° |
| 2026-04-30 07:04 | 41.92682 | 19.87187 | 32109 ft | 429 kts | 309° |
| 2026-04-30 07:05 | 41.98725 | 19.78361 | 32122 ft | 427 kts | 310° |
| 2026-04-30 07:05 | 42.02961 | 19.72739 | 32113 ft | 427 kts | 311° |
| 2026-04-30 07:06 | 42.07221 | 19.67175 | 32113 ft | 427 kts | 311° |
| 2026-04-30 07:06 | 42.11473 | 19.61582 | 32104 ft | 426 kts | 311° |
| 2026-04-30 07:07 | 42.15710 | 19.55979 | 32118 ft | 427 kts | 311° |
| 2026-04-30 07:07 | 42.19229 | 19.51315 | 32099 ft | 426 kts | 311° |
| 2026-04-30 07:08 | 42.23447 | 19.45715 | 32106 ft | 425 kts | 311° |
| 2026-04-30 07:08 | 42.27655 | 19.40117 | 32104 ft | 424 kts | 311° |
| 2026-04-30 07:09 | 42.31857 | 19.34515 | 32090 ft | 423 kts | 311° |
| 2026-04-30 07:09 | 42.36041 | 19.28927 | 32098 ft | 423 kts | 311° |
| 2026-04-30 07:10 | 42.40254 | 19.23350 | 32116 ft | 425 kts | 312° |
| 2026-04-30 07:10 | 42.44625 | 19.18021 | 32100 ft | 426 kts | 313° |
| 2026-04-30 07:11 | 42.49051 | 19.12712 | 32119 ft | 425 kts | 313° |
| 2026-04-30 07:11 | 42.53459 | 19.07369 | 32094 ft | 423 kts | 313° |
| 2026-04-30 07:12 | 42.57822 | 19.02033 | 32137 ft | 422 kts | 313° |
| 2026-04-30 07:12 | 42.62193 | 18.96659 | 32127 ft | 426 kts | 313° |
| 2026-04-30 07:13 | 42.66602 | 18.91237 | 32136 ft | 430 kts | 312° |
| 2026-04-30 07:13 | 42.71043 | 18.85759 | 32143 ft | 432 kts | 312° |
| 2026-04-30 07:14 | 42.75492 | 18.80263 | 32152 ft | 430 kts | 312° |
| 2026-04-30 07:14 | 42.79881 | 18.74834 | 32140 ft | 429 kts | 312° |
| 2026-04-30 07:15 | 42.84286 | 18.69372 | 32152 ft | 427 kts | 312° |
| 2026-04-30 07:15 | 42.88672 | 18.63919 | 32196 ft | 428 kts | 311° |
| 2026-04-30 07:16 | 42.93064 | 18.58449 | 32191 ft | 426 kts | 311° |
| 2026-04-30 07:16 | 42.97439 | 18.52990 | 32179 ft | 424 kts | 311° |
| 2026-04-30 07:17 | 43.01785 | 18.47555 | 32182 ft | 423 kts | 311° |
| 2026-04-30 07:18 | 43.08301 | 18.39386 | 32180 ft | 423 kts | 311° |
| 2026-04-30 07:18 | 43.12645 | 18.33927 | 32245 ft | 424 kts | 311° |
| 2026-04-30 07:19 | 43.17001 | 18.28441 | 32207 ft | 425 kts | 311° |
| 2026-04-30 07:19 | 43.21335 | 18.22972 | 32190 ft | 426 kts | 311° |
| 2026-04-30 07:20 | 43.25691 | 18.17463 | 32191 ft | 426 kts | 311° |
| 2026-04-30 07:20 | 43.30036 | 18.11960 | 32179 ft | 425 kts | 311° |
| 2026-04-30 07:21 | 43.34386 | 18.06438 | 32169 ft | 425 kts | 311° |
| 2026-04-30 07:21 | 43.38718 | 18.00927 | 32184 ft | 424 kts | 311° |
| 2026-04-30 07:22 | 43.45190 | 17.92673 | 32185 ft | 425 kts | 311° |
| 2026-04-30 07:22 | 43.49533 | 17.87120 | 32182 ft | 425 kts | 311° |
| 2026-04-30 07:23 | 43.53871 | 17.81562 | 32199 ft | 426 kts | 311° |
| 2026-04-30 07:23 | 43.58183 | 17.76022 | 32221 ft | 425 kts | 311° |
| 2026-04-30 07:24 | 43.62501 | 17.70464 | 32256 ft | 424 kts | 311° |
| 2026-04-30 07:24 | 43.66821 | 17.64900 | 32236 ft | 425 kts | 311° |
| 2026-04-30 07:25 | 43.71133 | 17.59327 | 32235 ft | 425 kts | 311° |
| 2026-04-30 07:25 | 43.75465 | 17.53758 | 32237 ft | 427 kts | 313° |
| 2026-04-30 07:26 | 43.80168 | 17.48623 | 32240 ft | 431 kts | 316° |
| 2026-04-30 07:26 | 43.84922 | 17.43541 | 32295 ft | 433 kts | 316° |
| 2026-04-30 07:27 | 43.89701 | 17.38399 | 32273 ft | 436 kts | 316° |
| 2026-04-30 07:27 | 43.94503 | 17.33211 | 32261 ft | 438 kts | 316° |
| 2026-04-30 07:28 | 43.99308 | 17.28004 | 32274 ft | 438 kts | 316° |
| 2026-04-30 07:28 | 44.04077 | 17.22825 | 32274 ft | 438 kts | 316° |
| 2026-04-30 07:29 | 44.08879 | 17.17600 | 32295 ft | 438 kts | 317° |
| 2026-04-30 07:29 | 44.13688 | 17.12354 | 32281 ft | 440 kts | 317° |
| 2026-04-30 07:30 | 44.20924 | 17.04441 | 32295 ft | 441 kts | 317° |
| 2026-04-30 07:31 | 44.25755 | 16.99143 | 32278 ft | 442 kts | 317° |
| 2026-04-30 07:31 | 44.30589 | 16.93830 | 32302 ft | 442 kts | 317° |
| 2026-04-30 07:32 | 44.35439 | 16.88489 | 32318 ft | 444 kts | 318° |
| 2026-04-30 07:32 | 44.40295 | 16.83131 | 32311 ft | 445 kts | 318° |
| 2026-04-30 07:33 | 44.45123 | 16.77791 | 32335 ft | 445 kts | 318° |
| 2026-04-30 07:33 | 44.49996 | 16.72391 | 32311 ft | 446 kts | 318° |
| 2026-04-30 07:34 | 44.54858 | 16.66990 | 32369 ft | 445 kts | 319° |
| 2026-04-30 07:34 | 44.59719 | 16.61578 | 32341 ft | 446 kts | 319° |
| 2026-04-30 07:35 | 44.64582 | 16.56151 | 32341 ft | 446 kts | 319° |
| 2026-04-30 07:35 | 44.69444 | 16.50714 | 32342 ft | 447 kts | 319° |
| 2026-04-30 07:36 | 44.74307 | 16.45264 | 32350 ft | 447 kts | 319° |
| 2026-04-30 07:36 | 44.79145 | 16.39830 | 32378 ft | 449 kts | 319° |
| 2026-04-30 07:37 | 44.84034 | 16.34326 | 32368 ft | 450 kts | 319° |
| 2026-04-30 07:37 | 44.88930 | 16.28804 | 32365 ft | 451 kts | 319° |
| 2026-04-30 07:38 | 44.93840 | 16.23251 | 32372 ft | 452 kts | 319° |
| 2026-04-30 07:38 | 44.98738 | 16.17699 | 32368 ft | 452 kts | 320° |
| 2026-04-30 07:39 | 45.03643 | 16.12127 | 32385 ft | 452 kts | 320° |
| 2026-04-30 07:39 | 45.08561 | 16.06528 | 32373 ft | 453 kts | 320° |
| 2026-04-30 07:40 | 45.13476 | 16.00920 | 32375 ft | 454 kts | 320° |
| 2026-04-30 07:40 | 45.18396 | 15.95292 | 32351 ft | 454 kts | 320° |
| 2026-04-30 07:41 | 45.23341 | 15.89714 | 32372 ft | 455 kts | 323° |
| 2026-04-30 07:41 | 45.28508 | 15.84529 | 32387 ft | 455 kts | 324° |
| 2026-04-30 07:42 | 45.33679 | 15.79408 | 32394 ft | 456 kts | 324° |
| 2026-04-30 07:42 | 45.38880 | 15.74217 | 32387 ft | 457 kts | 324° |
| 2026-04-30 07:43 | 45.44085 | 15.68988 | 32371 ft | 457 kts | 324° |
| 2026-04-30 07:43 | 45.49281 | 15.63750 | 32403 ft | 458 kts | 324° |
| 2026-04-30 07:44 | 45.54489 | 15.58488 | 32396 ft | 459 kts | 324° |
| 2026-04-30 07:44 | 45.59705 | 15.53208 | 32402 ft | 460 kts | 324° |
| 2026-04-30 07:45 | 45.64929 | 15.47907 | 32400 ft | 461 kts | 324° |
| 2026-04-30 07:45 | 45.70157 | 15.42588 | 32406 ft | 461 kts | 324° |
| 2026-04-30 07:46 | 45.75381 | 15.37263 | 32426 ft | 461 kts | 324° |
| 2026-04-30 07:46 | 45.80658 | 15.32178 | 32433 ft | 460 kts | 327° |
| 2026-04-30 07:47 | 45.86088 | 15.27307 | 32417 ft | 460 kts | 328° |
| 2026-04-30 07:47 | 45.91528 | 15.22440 | 32419 ft | 460 kts | 328° |
| 2026-04-30 07:48 | 45.96950 | 15.17545 | 32402 ft | 460 kts | 328° |
| 2026-04-30 07:48 | 46.02374 | 15.12619 | 32411 ft | 461 kts | 328° |
| 2026-04-30 07:49 | 46.07798 | 15.07676 | 32406 ft | 462 kts | 328° |
| 2026-04-30 07:49 | 46.13233 | 15.02712 | 32405 ft | 463 kts | 328° |
| 2026-04-30 07:50 | 46.18672 | 14.97734 | 32395 ft | 463 kts | 328° |
| 2026-04-30 07:50 | 46.24106 | 14.92748 | 32394 ft | 463 kts | 329° |
| 2026-04-30 07:51 | 46.29508 | 14.87782 | 32387 ft | 462 kts | 329° |
| 2026-04-30 07:51 | 46.34926 | 14.82786 | 32388 ft | 461 kts | 329° |
| 2026-04-30 07:52 | 46.40337 | 14.77786 | 32390 ft | 461 kts | 329° |
| 2026-04-30 07:52 | 46.45741 | 14.72781 | 32386 ft | 462 kts | 329° |
| 2026-04-30 07:53 | 46.51154 | 14.67756 | 32390 ft | 462 kts | 329° |
| 2026-04-30 07:53 | 46.56563 | 14.62721 | 32384 ft | 462 kts | 329° |
| 2026-04-30 07:54 | 46.61980 | 14.57668 | 32393 ft | 462 kts | 329° |
| 2026-04-30 07:54 | 46.66481 | 14.53460 | 32402 ft | 463 kts | 329° |
| 2026-04-30 07:55 | 46.71904 | 14.48378 | 32404 ft | 463 kts | 329° |
| 2026-04-30 07:55 | 46.77327 | 14.43285 | 32397 ft | 464 kts | 329° |
| 2026-04-30 07:56 | 46.82758 | 14.38170 | 32367 ft | 464 kts | 329° |
| 2026-04-30 07:56 | 46.88185 | 14.33047 | 32388 ft | 464 kts | 329° |
| 2026-04-30 07:57 | 46.93575 | 14.27947 | 32386 ft | 464 kts | 330° |
| 2026-04-30 07:57 | 46.99004 | 14.22798 | 32361 ft | 465 kts | 330° |
| 2026-04-30 07:58 | 47.04444 | 14.17626 | 32361 ft | 465 kts | 330° |
| 2026-04-30 07:58 | 47.09870 | 14.12453 | 32375 ft | 465 kts | 330° |
| 2026-04-30 07:59 | 47.15297 | 14.07264 | 32367 ft | 465 kts | 330° |
| 2026-04-30 07:59 | 47.20687 | 14.02106 | 32357 ft | 465 kts | 330° |
| 2026-04-30 08:00 | 47.28826 | 13.94282 | 32371 ft | 466 kts | 330° |
| 2026-04-30 08:00 | 47.34269 | 13.89038 | 32352 ft | 468 kts | 330° |
| 2026-04-30 08:01 | 47.39728 | 13.83762 | 32330 ft | 469 kts | 331° |
| 2026-04-30 08:01 | 47.45191 | 13.78469 | 32351 ft | 469 kts | 332° |
| 2026-04-30 08:02 | 47.53393 | 13.70499 | 32366 ft | 470 kts | 331° |
| 2026-04-30 08:03 | 47.64282 | 13.59869 | 32363 ft | 470 kts | 332° |
| 2026-04-30 08:04 | 47.69730 | 13.54528 | 32340 ft | 469 kts | 332° |
| 2026-04-30 08:04 | 47.75164 | 13.49189 | 32369 ft | 468 kts | 332° |
| 2026-04-30 08:05 | 47.80601 | 13.43837 | 32388 ft | 468 kts | 332° |
| 2026-04-30 08:05 | 47.86027 | 13.38480 | 32376 ft | 468 kts | 332° |
| 2026-04-30 08:06 | 47.91452 | 13.33108 | 32395 ft | 468 kts | 332° |
| 2026-04-30 08:06 | 47.96874 | 13.27728 | 32415 ft | 468 kts | 332° |
| 2026-04-30 08:07 | 48.02301 | 13.22329 | 32406 ft | 468 kts | 333° |
| 2026-04-30 08:07 | 48.07716 | 13.16927 | 32413 ft | 469 kts | 333° |
| 2026-04-30 08:08 | 48.13148 | 13.11494 | 32417 ft | 470 kts | 332° |
| 2026-04-30 08:08 | 48.18558 | 13.06069 | 32415 ft | 471 kts | 332° |
| 2026-04-30 08:09 | 48.23969 | 13.00537 | 32416 ft | 473 kts | 329° |
| 2026-04-30 08:09 | 48.29190 | 12.94486 | 32369 ft | 475 kts | 328° |
| 2026-04-30 08:10 | 48.34382 | 12.88342 | 32399 ft | 475 kts | 328° |
| 2026-04-30 08:10 | 48.39584 | 12.82197 | 32419 ft | 476 kts | 329° |
| 2026-04-30 08:11 | 48.44805 | 12.76043 | 32427 ft | 476 kts | 329° |
| 2026-04-30 08:11 | 48.49988 | 12.69928 | 32402 ft | 477 kts | 329° |
| 2026-04-30 08:12 | 48.55204 | 12.63756 | 32426 ft | 477 kts | 329° |
| 2026-04-30 08:12 | 48.60424 | 12.57562 | 32429 ft | 477 kts | 329° |
| 2026-04-30 08:13 | 48.65636 | 12.51359 | 32420 ft | 476 kts | 329° |
| 2026-04-30 08:13 | 48.70836 | 12.45155 | 32425 ft | 476 kts | 329° |
| 2026-04-30 08:14 | 48.76029 | 12.38942 | 32427 ft | 476 kts | 329° |
| 2026-04-30 08:14 | 48.81221 | 12.32715 | 32433 ft | 476 kts | 329° |
| 2026-04-30 08:15 | 48.86410 | 12.26472 | 32414 ft | 475 kts | 329° |
| 2026-04-30 08:15 | 48.91595 | 12.20219 | 32439 ft | 476 kts | 329° |
| 2026-04-30 08:16 | 48.96756 | 12.13979 | 32439 ft | 477 kts | 329° |
| 2026-04-30 08:16 | 49.01987 | 12.07635 | 32438 ft | 478 kts | 328° |
| 2026-04-30 08:17 | 49.07190 | 12.01306 | 32437 ft | 478 kts | 328° |
| 2026-04-30 08:17 | 49.12345 | 11.95020 | 32420 ft | 478 kts | 328° |
| 2026-04-30 08:18 | 49.17527 | 11.88681 | 32446 ft | 478 kts | 328° |
| 2026-04-30 08:18 | 49.22722 | 11.82314 | 32457 ft | 478 kts | 328° |
| 2026-04-30 08:19 | 49.27915 | 11.75927 | 32455 ft | 478 kts | 328° |
| 2026-04-30 08:19 | 49.33110 | 11.69520 | 32439 ft | 478 kts | 328° |
| 2026-04-30 08:20 | 49.38288 | 11.63118 | 32418 ft | 478 kts | 328° |
| 2026-04-30 08:20 | 49.43471 | 11.56691 | 32449 ft | 478 kts | 328° |
| 2026-04-30 08:21 | 49.48645 | 11.50257 | 32444 ft | 479 kts | 328° |
| 2026-04-30 08:21 | 49.53797 | 11.43832 | 32443 ft | 480 kts | 327° |
| 2026-04-30 08:22 | 49.58912 | 11.37185 | 32435 ft | 482 kts | 325° |
| 2026-04-30 08:22 | 49.63875 | 11.30208 | 32416 ft | 483 kts | 323° |
| 2026-04-30 08:23 | 49.68817 | 11.23186 | 32449 ft | 483 kts | 323° |
| 2026-04-30 08:23 | 49.73777 | 11.16168 | 32454 ft | 484 kts | 323° |
| 2026-04-30 08:24 | 49.78758 | 11.09128 | 32460 ft | 484 kts | 323° |
| 2026-04-30 08:24 | 49.83729 | 11.02086 | 32451 ft | 485 kts | 323° |
| 2026-04-30 08:25 | 49.88674 | 10.95059 | 32452 ft | 485 kts | 323° |
| 2026-04-30 08:25 | 49.93644 | 10.87974 | 32462 ft | 485 kts | 323° |
| 2026-04-30 08:26 | 49.98606 | 10.80880 | 32465 ft | 485 kts | 323° |
| 2026-04-30 08:26 | 50.03576 | 10.73754 | 32464 ft | 486 kts | 323° |
| 2026-04-30 08:27 | 50.08540 | 10.66613 | 32472 ft | 486 kts | 323° |
| 2026-04-30 08:27 | 50.13505 | 10.59450 | 32465 ft | 486 kts | 323° |
| 2026-04-30 08:28 | 50.18458 | 10.52285 | 32451 ft | 485 kts | 323° |
| 2026-04-30 08:28 | 50.23399 | 10.45115 | 32458 ft | 485 kts | 322° |
| 2026-04-30 08:29 | 50.28312 | 10.37964 | 32460 ft | 485 kts | 322° |
| 2026-04-30 08:29 | 50.33250 | 10.30758 | 32459 ft | 486 kts | 322° |
| 2026-04-30 08:30 | 50.37959 | 10.23110 | 32487 ft | 490 kts | 316° |
| 2026-04-30 08:30 | 50.42378 | 10.14938 | 32467 ft | 491 kts | 315° |
| 2026-04-30 08:31 | 50.46786 | 10.06746 | 32474 ft | 491 kts | 316° |
| 2026-04-30 08:31 | 50.51209 | 9.98574 | 32459 ft | 491 kts | 316° |
| 2026-04-30 08:32 | 50.55638 | 9.90407 | 32474 ft | 491 kts | 316° |
| 2026-04-30 08:32 | 50.60067 | 9.82216 | 32457 ft | 491 kts | 316° |
| 2026-04-30 08:33 | 50.64486 | 9.74015 | 32454 ft | 491 kts | 315° |
| 2026-04-30 08:33 | 50.68901 | 9.65792 | 32459 ft | 492 kts | 315° |
| 2026-04-30 08:34 | 50.73317 | 9.57539 | 32457 ft | 492 kts | 315° |
| 2026-04-30 08:34 | 50.77732 | 9.49263 | 32463 ft | 493 kts | 315° |
| 2026-04-30 08:35 | 50.82143 | 9.40968 | 32458 ft | 493 kts | 315° |
| 2026-04-30 08:35 | 50.86520 | 9.32710 | 32465 ft | 493 kts | 315° |
| 2026-04-30 08:36 | 50.90948 | 9.24328 | 32471 ft | 493 kts | 315° |
| 2026-04-30 08:36 | 50.95314 | 9.16038 | 32473 ft | 493 kts | 314° |
| 2026-04-30 08:37 | 50.99738 | 9.07609 | 32475 ft | 494 kts | 314° |
| 2026-04-30 08:37 | 51.04097 | 8.99278 | 32478 ft | 493 kts | 314° |
| 2026-04-30 08:38 | 51.08483 | 8.90865 | 32472 ft | 493 kts | 314° |
| 2026-04-30 08:38 | 51.12860 | 8.82444 | 32472 ft | 493 kts | 314° |
| 2026-04-30 08:39 | 51.16982 | 8.73658 | 32473 ft | 496 kts | 310° |
| 2026-04-30 08:39 | 51.20974 | 8.64679 | 32463 ft | 496 kts | 310° |
| 2026-04-30 08:40 | 51.24280 | 8.57225 | 32441 ft | 496 kts | 309° |
| 2026-04-30 08:40 | 51.28276 | 8.48245 | 32468 ft | 496 kts | 309° |
| 2026-04-30 08:41 | 51.32276 | 8.39260 | 32458 ft | 496 kts | 309° |
| 2026-04-30 08:41 | 51.36278 | 8.30243 | 32459 ft | 497 kts | 309° |
| 2026-04-30 08:42 | 51.40272 | 8.21207 | 32452 ft | 497 kts | 309° |
| 2026-04-30 08:42 | 51.44240 | 8.12196 | 32446 ft | 497 kts | 309° |
| 2026-04-30 08:43 | 51.48218 | 8.03133 | 32453 ft | 497 kts | 309° |
| 2026-04-30 08:43 | 51.52198 | 7.94033 | 32453 ft | 497 kts | 309° |
| 2026-04-30 08:44 | 51.56167 | 7.84926 | 32445 ft | 497 kts | 309° |
| 2026-04-30 08:44 | 51.60127 | 7.75808 | 32451 ft | 497 kts | 308° |
| 2026-04-30 08:45 | 51.64080 | 7.66674 | 32456 ft | 497 kts | 308° |
| 2026-04-30 08:45 | 51.68025 | 7.57526 | 32466 ft | 497 kts | 308° |
| 2026-04-30 08:46 | 51.71970 | 7.48346 | 32459 ft | 498 kts | 308° |
| 2026-04-30 08:46 | 51.75883 | 7.39208 | 32457 ft | 498 kts | 308° |
| 2026-04-30 08:47 | 51.79819 | 7.29981 | 32439 ft | 499 kts | 308° |
| 2026-04-30 08:47 | 51.83751 | 7.20732 | 32457 ft | 499 kts | 307° |
| 2026-04-30 08:48 | 51.87671 | 7.11478 | 32455 ft | 499 kts | 307° |
| 2026-04-30 08:48 | 51.91591 | 7.02189 | 32456 ft | 499 kts | 307° |
| 2026-04-30 08:49 | 51.95498 | 6.92899 | 32454 ft | 498 kts | 307° |
| 2026-04-30 08:49 | 51.99394 | 6.83601 | 32449 ft | 498 kts | 307° |
| 2026-04-30 08:50 | 52.03278 | 6.74275 | 32452 ft | 499 kts | 306° |
| 2026-04-30 08:50 | 52.07029 | 6.64766 | 32450 ft | 500 kts | 305° |
| 2026-04-30 08:51 | 52.10717 | 6.55188 | 32445 ft | 500 kts | 304° |
| 2026-04-30 08:51 | 52.14415 | 6.45592 | 32446 ft | 500 kts | 305° |
| 2026-04-30 08:52 | 52.18088 | 6.36079 | 32437 ft | 500 kts | 304° |
| 2026-04-30 08:52 | 52.21796 | 6.26460 | 32438 ft | 501 kts | 304° |
| 2026-04-30 08:53 | 52.25499 | 6.16817 | 32436 ft | 501 kts | 304° |
| 2026-04-30 08:53 | 52.29193 | 6.07157 | 32431 ft | 501 kts | 304° |
| 2026-04-30 08:54 | 52.32884 | 5.97468 | 32433 ft | 502 kts | 304° |
| 2026-04-30 08:54 | 52.36564 | 5.87771 | 32428 ft | 502 kts | 304° |
| 2026-04-30 08:55 | 52.40217 | 5.78108 | 32440 ft | 502 kts | 304° |
| 2026-04-30 08:55 | 52.43888 | 5.68357 | 32445 ft | 502 kts | 303° |
| 2026-04-30 08:56 | 52.47546 | 5.58607 | 32452 ft | 502 kts | 303° |
| 2026-04-30 08:56 | 52.51191 | 5.48853 | 32455 ft | 501 kts | 303° |
| 2026-04-30 08:57 | 52.54830 | 5.39075 | 32448 ft | 502 kts | 303° |
| 2026-04-30 08:57 | 52.58468 | 5.29266 | 32457 ft | 503 kts | 303° |
| 2026-04-30 08:58 | 52.62100 | 5.19432 | 32440 ft | 503 kts | 303° |
| 2026-04-30 08:58 | 52.65726 | 5.09576 | 32444 ft | 504 kts | 303° |
| 2026-04-30 08:59 | 52.69352 | 4.99682 | 32429 ft | 504 kts | 302° |
| 2026-04-30 08:59 | 52.72967 | 4.89780 | 32441 ft | 504 kts | 302° |
| 2026-04-30 09:00 | 52.76573 | 4.79864 | 32455 ft | 504 kts | 302° |
| 2026-04-30 09:00 | 52.80151 | 4.69985 | 32450 ft | 504 kts | 302° |
| 2026-04-30 09:01 | 52.83739 | 4.60038 | 32444 ft | 504 kts | 302° |
| 2026-04-30 09:01 | 52.87324 | 4.50060 | 32438 ft | 503 kts | 302° |
| 2026-04-30 09:02 | 52.92678 | 4.35084 | 32438 ft | 503 kts | 302° |
| 2026-04-30 09:02 | 52.96230 | 4.25099 | 32434 ft | 503 kts | 302° |
| 2026-04-30 09:03 | 52.99774 | 4.15097 | 32431 ft | 503 kts | 302° |
| 2026-04-30 09:03 | 53.03311 | 4.05074 | 32422 ft | 503 kts | 301° |
| 2026-04-30 09:04 | 53.06823 | 3.95084 | 32422 ft | 506 kts | 301° |
| 2026-04-30 09:04 | 53.10372 | 3.84946 | 32436 ft | 507 kts | 301° |
| 2026-04-30 09:05 | 53.13916 | 3.74778 | 32436 ft | 508 kts | 301° |
| 2026-04-30 09:05 | 53.17454 | 3.64588 | 32440 ft | 507 kts | 301° |
| 2026-04-30 09:06 | 53.20968 | 3.54426 | 32446 ft | 505 kts | 300° |
| 2026-04-30 09:06 | 53.24467 | 3.44270 | 32412 ft | 504 kts | 300° |
| 2026-04-30 09:07 | 53.28017 | 3.34229 | 32424 ft | 505 kts | 302° |
| 2026-04-30 09:07 | 53.31703 | 3.24209 | 32407 ft | 507 kts | 302° |
| 2026-04-30 09:08 | 53.35388 | 3.14153 | 32404 ft | 508 kts | 302° |
| 2026-04-30 09:08 | 53.39060 | 3.04020 | 32421 ft | 510 kts | 301° |
| 2026-04-30 09:09 | 53.42726 | 2.93821 | 32423 ft | 510 kts | 301° |
| 2026-04-30 09:09 | 53.46356 | 2.83673 | 32424 ft | 509 kts | 301° |
| 2026-04-30 09:10 | 53.49988 | 2.73487 | 32405 ft | 507 kts | 301° |
| 2026-04-30 09:10 | 53.53601 | 2.63308 | 32420 ft | 506 kts | 301° |
| 2026-04-30 09:11 | 53.57193 | 2.53151 | 32400 ft | 505 kts | 300° |
| 2026-04-30 09:11 | 53.60778 | 2.42973 | 32415 ft | 505 kts | 300° |
| 2026-04-30 09:12 | 53.64367 | 2.32744 | 32404 ft | 507 kts | 300° |
| 2026-04-30 09:12 | 53.67945 | 2.22497 | 32420 ft | 508 kts | 300° |
| 2026-04-30 09:13 | 53.71530 | 2.12194 | 32405 ft | 509 kts | 300° |
| 2026-04-30 09:13 | 53.75085 | 2.01933 | 32413 ft | 509 kts | 300° |
| 2026-04-30 09:14 | 53.78648 | 1.91602 | 32414 ft | 508 kts | 300° |
| 2026-04-30 09:14 | 53.82201 | 1.81258 | 32412 ft | 507 kts | 299° |
| 2026-04-30 09:15 | 53.85736 | 1.70924 | 32411 ft | 506 kts | 299° |
| 2026-04-30 09:15 | 53.89239 | 1.60642 | 32413 ft | 506 kts | 299° |
| 2026-04-30 09:16 | 53.92744 | 1.50309 | 32412 ft | 505 kts | 299° |
| 2026-04-30 09:16 | 53.96241 | 1.39958 | 32409 ft | 505 kts | 299° |
| 2026-04-30 09:17 | 53.99723 | 1.29606 | 32410 ft | 505 kts | 298° |
| 2026-04-30 09:17 | 54.03198 | 1.19232 | 32408 ft | 504 kts | 298° |
| 2026-04-30 09:18 | 54.06660 | 1.08853 | 32409 ft | 504 kts | 298° |
| 2026-04-30 09:18 | 54.10113 | 0.98455 | 32412 ft | 505 kts | 298° |
| 2026-04-30 09:19 | 54.13560 | 0.88032 | 32406 ft | 505 kts | 298° |
| 2026-04-30 09:19 | 54.17000 | 0.77588 | 32409 ft | 505 kts | 298° |
| 2026-04-30 09:20 | 54.20429 | 0.67127 | 32407 ft | 505 kts | 298° |
| 2026-04-30 09:20 | 54.23857 | 0.56627 | 32404 ft | 505 kts | 298° |
| 2026-04-30 09:21 | 54.27270 | 0.46130 | 32407 ft | 505 kts | 297° |
| 2026-04-30 09:21 | 54.30680 | 0.35594 | 32402 ft | 506 kts | 297° |
| 2026-04-30 09:22 | 54.34060 | 0.25106 | 32406 ft | 506 kts | 297° |
| 2026-04-30 09:22 | 54.37451 | 0.14535 | 32404 ft | 506 kts | 297° |
| 2026-04-30 09:23 | 54.40836 | 0.03939 | 32406 ft | 506 kts | 297° |
| 2026-04-30 09:23 | 54.44214 | -0.06678 | 32404 ft | 507 kts | 297° |
| 2026-04-30 09:24 | 54.47585 | -0.17327 | 32406 ft | 508 kts | 296° |
| 2026-04-30 09:24 | 54.50952 | -0.28008 | 32408 ft | 508 kts | 296° |
| 2026-04-30 09:25 | 54.54313 | -0.38718 | 32404 ft | 509 kts | 296° |
| 2026-04-30 09:25 | 54.57669 | -0.49456 | 32399 ft | 508 kts | 296° |
| 2026-04-30 09:26 | 54.60986 | -0.60119 | 32401 ft | 508 kts | 296° |
| 2026-04-30 09:26 | 54.64314 | -0.70868 | 32396 ft | 508 kts | 296° |
| 2026-04-30 09:27 | 54.67633 | -0.81634 | 32399 ft | 507 kts | 296° |
| 2026-04-30 09:27 | 54.70940 | -0.92409 | 32388 ft | 507 kts | 296° |
| 2026-04-30 09:28 | 54.74235 | -1.03197 | 32387 ft | 507 kts | 296° |
| 2026-04-30 09:28 | 54.76967 | -1.12177 | 32396 ft | 507 kts | 295° |
| 2026-04-30 09:29 | 54.80249 | -1.23008 | 32388 ft | 508 kts | 295° |
| 2026-04-30 09:29 | 54.83524 | -1.33867 | 32386 ft | 508 kts | 295° |
| 2026-04-30 09:30 | 54.86789 | -1.44745 | 32397 ft | 509 kts | 295° |
| 2026-04-30 09:30 | 54.90052 | -1.55663 | 32404 ft | 509 kts | 295° |
| 2026-04-30 09:31 | 54.93307 | -1.66606 | 32409 ft | 510 kts | 295° |
| 2026-04-30 09:31 | 54.96536 | -1.77511 | 32404 ft | 510 kts | 295° |
| 2026-04-30 09:32 | 54.99779 | -1.88515 | 32385 ft | 510 kts | 294° |
| 2026-04-30 09:32 | 55.03006 | -1.99521 | 32373 ft | 510 kts | 294° |
| 2026-04-30 09:33 | 55.06220 | -2.10527 | 32372 ft | 509 kts | 294° |
| 2026-04-30 09:33 | 55.09422 | -2.21542 | 32371 ft | 508 kts | 294° |
| 2026-04-30 09:34 | 55.12615 | -2.32587 | 32359 ft | 510 kts | 294° |
| 2026-04-30 09:34 | 55.15807 | -2.43679 | 32350 ft | 511 kts | 294° |
| 2026-04-30 09:35 | 55.18995 | -2.54807 | 32354 ft | 512 kts | 294° |
| 2026-04-30 09:35 | 55.22177 | -2.65967 | 32359 ft | 513 kts | 294° |
| 2026-04-30 09:36 | 55.25336 | -2.77099 | 32365 ft | 511 kts | 293° |
| 2026-04-30 09:36 | 55.28452 | -2.88121 | 32345 ft | 499 kts | 293° |
| 2026-04-30 09:37 | 55.31527 | -2.99066 | 32362 ft | 502 kts | 293° |
| 2026-04-30 09:37 | 55.34607 | -3.10086 | 32357 ft | 504 kts | 293° |
| 2026-04-30 09:38 | 55.37696 | -3.21186 | 32357 ft | 505 kts | 293° |
| 2026-04-30 09:38 | 55.40772 | -3.32286 | 32353 ft | 505 kts | 293° |
| 2026-04-30 09:39 | 55.43820 | -3.43337 | 32336 ft | 504 kts | 292° |
| 2026-04-30 09:39 | 55.46886 | -3.54511 | 32332 ft | 503 kts | 292° |
| 2026-04-30 09:40 | 55.49900 | -3.65552 | 32334 ft | 502 kts | 292° |
| 2026-04-30 09:40 | 55.52914 | -3.76644 | 32323 ft | 501 kts | 292° |
| 2026-04-30 09:41 | 55.55921 | -3.87764 | 32392 ft | 503 kts | 292° |
| 2026-04-30 09:41 | 55.57428 | -3.93359 | 32664 ft | 504 kts | 292° |
| 2026-04-30 09:41 | 55.58929 | -3.98943 | 32968 ft | 503 kts | 292° |
| 2026-04-30 09:42 | 55.60427 | -4.04530 | 33301 ft | 502 kts | 292° |
| 2026-04-30 09:42 | 55.61917 | -4.10099 | 33646 ft | 500 kts | 292° |
| 2026-04-30 09:42 | 55.63404 | -4.15671 | 33935 ft | 500 kts | 291° |
| 2026-04-30 09:42 | 55.64883 | -4.21227 | 34224 ft | 499 kts | 291° |
| 2026-04-30 09:43 | 55.67845 | -4.32401 | 34332 ft | 501 kts | 291° |
| 2026-04-30 09:43 | 55.70775 | -4.43507 | 34335 ft | 498 kts | 291° |
| 2026-04-30 09:44 | 55.73699 | -4.54639 | 34351 ft | 497 kts | 291° |
| 2026-04-30 09:44 | 55.76614 | -4.65801 | 34344 ft | 498 kts | 291° |
| 2026-04-30 09:45 | 55.79523 | -4.76992 | 34333 ft | 500 kts | 291° |
| 2026-04-30 09:45 | 55.82435 | -4.88252 | 34330 ft | 501 kts | 291° |
| 2026-04-30 09:46 | 55.85321 | -4.99466 | 34322 ft | 502 kts | 290° |
| 2026-04-30 09:46 | 55.88220 | -5.10788 | 34340 ft | 502 kts | 291° |
| 2026-04-30 09:47 | 55.91110 | -5.22129 | 34306 ft | 502 kts | 290° |
| 2026-04-30 09:47 | 55.93985 | -5.33470 | 34304 ft | 501 kts | 290° |
| 2026-04-30 09:48 | 55.96845 | -5.44809 | 34289 ft | 500 kts | 290° |
| 2026-04-30 09:48 | 55.99692 | -5.56159 | 34295 ft | 499 kts | 290° |
| 2026-04-30 09:49 | 56.02518 | -5.67479 | 34301 ft | 498 kts | 290° |
| 2026-04-30 09:49 | 56.05331 | -5.78811 | 34297 ft | 498 kts | 290° |
| 2026-04-30 09:50 | 56.08113 | -5.90072 | 34293 ft | 498 kts | 290° |
| 2026-04-30 09:50 | 56.10903 | -6.01420 | 34294 ft | 497 kts | 290° |
| 2026-04-30 09:51 | 56.13678 | -6.12768 | 34292 ft | 497 kts | 290° |
| 2026-04-30 09:51 | 56.16442 | -6.24134 | 34291 ft | 496 kts | 290° |
| 2026-04-30 09:52 | 56.19193 | -6.35503 | 34291 ft | 496 kts | 290° |
| 2026-04-30 09:52 | 56.21926 | -6.46856 | 34284 ft | 495 kts | 290° |
| 2026-04-30 09:53 | 56.24650 | -6.58232 | 34278 ft | 495 kts | 290° |
| 2026-04-30 09:53 | 56.27346 | -6.69550 | 34273 ft | 495 kts | 290° |
| 2026-04-30 09:54 | 56.30046 | -6.80946 | 34268 ft | 495 kts | 290° |
| 2026-04-30 09:54 | 56.32737 | -6.92363 | 34280 ft | 495 kts | 290° |
| 2026-04-30 09:55 | 56.35414 | -7.03780 | 34275 ft | 494 kts | 290° |
| 2026-04-30 09:55 | 56.38077 | -7.15198 | 34268 ft | 493 kts | 289° |
| 2026-04-30 09:56 | 56.40729 | -7.26628 | 34264 ft | 492 kts | 289° |
| 2026-04-30 09:56 | 56.43344 | -7.37964 | 34268 ft | 492 kts | 289° |
| 2026-04-30 09:57 | 56.45964 | -7.49381 | 34264 ft | 491 kts | 289° |
| 2026-04-30 09:57 | 56.48576 | -7.60823 | 34270 ft | 492 kts | 288° |
| 2026-04-30 09:58 | 56.51181 | -7.72303 | 34267 ft | 493 kts | 288° |
| 2026-04-30 09:58 | 56.53782 | -7.83823 | 34266 ft | 494 kts | 288° |
| 2026-04-30 09:59 | 56.58965 | -8.06964 | 34267 ft | 495 kts | 288° |
| 2026-04-30 10:00 | 56.62800 | -8.24254 | 34262 ft | 493 kts | 287° |
| 2026-04-30 10:01 | 56.66605 | -8.41547 | 34240 ft | 489 kts | 287° |
| 2026-04-30 10:02 | 56.70363 | -8.58776 | 34243 ft | 487 kts | 287° |
| 2026-04-30 10:02 | 56.72846 | -8.70246 | 34252 ft | 487 kts | 287° |
| 2026-04-30 10:03 | 56.75311 | -8.81688 | 34250 ft | 488 kts | 287° |
| 2026-04-30 10:03 | 56.77784 | -8.93237 | 34240 ft | 489 kts | 287° |
| 2026-04-30 10:04 | 56.80250 | -9.04814 | 34249 ft | 490 kts | 286° |
| 2026-04-30 10:04 | 56.82705 | -9.16403 | 34235 ft | 490 kts | 286° |
| 2026-04-30 10:05 | 56.85151 | -9.28017 | 34236 ft | 489 kts | 286° |
| 2026-04-30 10:05 | 56.87581 | -9.39620 | 34238 ft | 489 kts | 286° |
| 2026-04-30 10:06 | 56.90000 | -9.51236 | 34247 ft | 488 kts | 285° |
| 2026-04-30 10:06 | 56.92400 | -9.62829 | 34237 ft | 487 kts | 285° |
| 2026-04-30 10:07 | 56.94784 | -9.74414 | 34223 ft | 485 kts | 285° |
| 2026-04-30 10:07 | 56.97154 | -9.85995 | 34226 ft | 485 kts | 285° |
| 2026-04-30 10:08 | 56.99510 | -9.97569 | 34227 ft | 484 kts | 285° |
| 2026-04-30 10:08 | 57.01419 | -10.09340 | 34257 ft | 480 kts | 278° |
| 2026-04-30 10:09 | 57.03064 | -10.21232 | 34230 ft | 481 kts | 277° |
| 2026-04-30 10:09 | 57.04696 | -10.33080 | 34224 ft | 482 kts | 278° |
| 2026-04-30 10:10 | 57.06353 | -10.45021 | 34221 ft | 482 kts | 278° |
| 2026-04-30 10:10 | 57.08010 | -10.56972 | 34221 ft | 483 kts | 278° |
| 2026-04-30 10:11 | 57.09659 | -10.68938 | 34239 ft | 483 kts | 277° |
| 2026-04-30 10:11 | 57.11298 | -10.80940 | 34220 ft | 484 kts | 277° |
| 2026-04-30 10:12 | 57.12928 | -10.92981 | 34220 ft | 485 kts | 277° |
| 2026-04-30 10:12 | 57.14551 | -11.05064 | 34213 ft | 486 kts | 277° |
| 2026-04-30 10:13 | 57.16164 | -11.17161 | 34232 ft | 486 kts | 277° |
| 2026-04-30 10:13 | 57.17761 | -11.29232 | 34205 ft | 483 kts | 277° |
| 2026-04-30 10:14 | 57.19337 | -11.41231 | 34221 ft | 479 kts | 277° |
| 2026-04-30 10:14 | 57.21653 | -11.59063 | 34208 ft | 473 kts | 276° |
| 2026-04-30 10:15 | 57.23158 | -11.70785 | 34210 ft | 471 kts | 276° |
| 2026-04-30 10:15 | 57.24655 | -11.82549 | 34201 ft | 471 kts | 276° |
| 2026-04-30 10:16 | 57.25895 | -11.92372 | 34207 ft | 473 kts | 276° |
| 2026-04-30 10:17 | 57.28129 | -12.10220 | 34206 ft | 476 kts | 277° |
| 2026-04-30 10:17 | 57.30352 | -12.28177 | 34202 ft | 478 kts | 277° |
| 2026-04-30 10:18 | 57.31822 | -12.40183 | 34221 ft | 478 kts | 277° |
| 2026-04-30 10:19 | 57.33993 | -12.58097 | 34197 ft | 476 kts | 276° |
| 2026-04-30 10:19 | 57.35425 | -12.70037 | 34197 ft | 474 kts | 276° |
| 2026-04-30 10:20 | 57.36840 | -12.81952 | 34199 ft | 472 kts | 276° |
| 2026-04-30 10:20 | 57.38932 | -12.99771 | 34207 ft | 471 kts | 276° |
| 2026-04-30 10:21 | 57.40311 | -13.11649 | 34208 ft | 471 kts | 276° |
| 2026-04-30 10:21 | 57.41681 | -13.23555 | 34208 ft | 472 kts | 276° |
| 2026-04-30 10:22 | 57.43042 | -13.35490 | 34215 ft | 474 kts | 276° |
| 2026-04-30 10:22 | 57.44397 | -13.47478 | 34215 ft | 475 kts | 276° |
| 2026-04-30 10:23 | 57.45747 | -13.59518 | 34211 ft | 477 kts | 276° |
| 2026-04-30 10:23 | 57.47090 | -13.71614 | 34214 ft | 478 kts | 275° |
| 2026-04-30 10:24 | 57.48414 | -13.83646 | 34211 ft | 478 kts | 275° |
| 2026-04-30 10:24 | 57.49733 | -13.95753 | 34229 ft | 478 kts | 275° |
| 2026-04-30 10:25 | 57.51042 | -14.07878 | 34222 ft | 478 kts | 275° |
| 2026-04-30 10:25 | 57.52337 | -14.19998 | 34204 ft | 477 kts | 275° |
| 2026-04-30 10:26 | 57.53623 | -14.32146 | 34214 ft | 477 kts | 275° |
| 2026-04-30 10:26 | 57.54894 | -14.44272 | 34214 ft | 477 kts | 275° |
| 2026-04-30 10:27 | 57.56144 | -14.56316 | 34206 ft | 477 kts | 275° |
| 2026-04-30 10:27 | 57.57392 | -14.68470 | 34212 ft | 477 kts | 276° |
| 2026-04-30 10:28 | 57.58627 | -14.80610 | 34204 ft | 476 kts | 275° |
| 2026-04-30 10:28 | 57.59848 | -14.92735 | 34225 ft | 475 kts | 276° |
| 2026-04-30 10:29 | 57.61055 | -15.04841 | 34216 ft | 475 kts | 276° |
| 2026-04-30 10:29 | 57.62249 | -15.16944 | 34201 ft | 474 kts | 276° |
| 2026-04-30 10:30 | 57.63428 | -15.29027 | 34215 ft | 473 kts | 276° |
| 2026-04-30 10:30 | 57.64595 | -15.41103 | 34206 ft | 472 kts | 276° |
| 2026-04-30 10:31 | 57.65749 | -15.53179 | 34205 ft | 472 kts | 276° |
| 2026-04-30 10:31 | 57.66886 | -15.65199 | 34204 ft | 472 kts | 276° |
| 2026-04-30 10:32 | 57.68018 | -15.77297 | 34205 ft | 472 kts | 276° |
| 2026-04-30 10:32 | 57.69138 | -15.89395 | 34205 ft | 473 kts | 276° |
| 2026-04-30 10:33 | 57.70248 | -16.01516 | 34206 ft | 473 kts | 275° |
| 2026-04-30 10:33 | 57.71347 | -16.13654 | 34200 ft | 473 kts | 275° |
| 2026-04-30 10:34 | 57.72433 | -16.25790 | 34204 ft | 473 kts | 275° |
| 2026-04-30 10:34 | 57.73508 | -16.37932 | 34207 ft | 473 kts | 275° |
| 2026-04-30 10:35 | 57.74564 | -16.49998 | 34203 ft | 472 kts | 275° |
| 2026-04-30 10:35 | 57.75616 | -16.62145 | 34220 ft | 472 kts | 275° |
| 2026-04-30 10:36 | 57.76655 | -16.74303 | 34211 ft | 472 kts | 274° |
| 2026-04-30 10:36 | 57.77680 | -16.86434 | 34204 ft | 471 kts | 274° |
| 2026-04-30 10:37 | 57.78692 | -16.98546 | 34226 ft | 470 kts | 274° |
| 2026-04-30 10:37 | 57.79691 | -17.10663 | 34215 ft | 470 kts | 274° |
| 2026-04-30 10:38 | 57.80680 | -17.22800 | 34211 ft | 471 kts | 274° |
| 2026-04-30 10:38 | 57.81657 | -17.34923 | 34221 ft | 469 kts | 274° |
| 2026-04-30 10:39 | 57.82619 | -17.47020 | 34234 ft | 467 kts | 273° |
| 2026-04-30 10:39 | 57.83559 | -17.58971 | 34224 ft | 464 kts | 273° |
| 2026-04-30 10:40 | 57.84485 | -17.70918 | 34218 ft | 461 kts | 273° |
| 2026-04-30 10:40 | 57.85394 | -17.82796 | 34224 ft | 459 kts | 273° |
| 2026-04-30 10:41 | 57.86289 | -17.94641 | 34238 ft | 458 kts | 272° |
| 2026-04-30 10:41 | 57.87174 | -18.06508 | 34236 ft | 459 kts | 272° |
| 2026-04-30 10:42 | 57.88049 | -18.18400 | 34235 ft | 460 kts | 272° |
| 2026-04-30 10:42 | 57.88915 | -18.30318 | 34236 ft | 460 kts | 272° |
| 2026-04-30 10:43 | 57.89771 | -18.42253 | 34239 ft | 461 kts | 272° |
| 2026-04-30 10:43 | 57.90617 | -18.54217 | 34241 ft | 462 kts | 272° |
| 2026-04-30 10:44 | 57.91447 | -18.66113 | 34256 ft | 463 kts | 273° |
| 2026-04-30 10:44 | 57.92273 | -18.78120 | 34246 ft | 462 kts | 273° |
| 2026-04-30 10:45 | 57.93087 | -18.90116 | 34248 ft | 462 kts | 273° |
| 2026-04-30 10:45 | 57.93889 | -19.02104 | 34235 ft | 461 kts | 273° |
| 2026-04-30 10:46 | 57.94678 | -19.14080 | 34247 ft | 460 kts | 273° |
| 2026-04-30 10:46 | 57.95454 | -19.26025 | 34242 ft | 459 kts | 273° |
| 2026-04-30 10:47 | 57.96216 | -19.37953 | 34237 ft | 459 kts | 273° |
| 2026-04-30 10:47 | 57.96969 | -19.49899 | 34256 ft | 459 kts | 272° |
| 2026-04-30 10:48 | 57.97705 | -19.61774 | 34247 ft | 459 kts | 272° |
| 2026-04-30 10:48 | 57.98434 | -19.73715 | 34249 ft | 459 kts | 272° |
| 2026-04-30 10:49 | 57.99155 | -19.85673 | 34255 ft | 459 kts | 272° |
| 2026-04-30 10:49 | 57.99876 | -19.97646 | 34266 ft | 460 kts | 275° |
| 2026-04-30 10:50 | 58.01275 | -20.09496 | 34283 ft | 465 kts | 282° |
| 2026-04-30 10:50 | 58.02983 | -20.21291 | 34256 ft | 467 kts | 283° |
| 2026-04-30 10:51 | 58.04672 | -20.33139 | 34256 ft | 468 kts | 282° |
| 2026-04-30 10:51 | 58.06335 | -20.45028 | 34253 ft | 468 kts | 282° |
| 2026-04-30 10:52 | 58.07978 | -20.56928 | 34251 ft | 468 kts | 282° |
| 2026-04-30 10:52 | 58.09599 | -20.68755 | 34249 ft | 468 kts | 282° |
| 2026-04-30 10:53 | 58.11217 | -20.80660 | 34248 ft | 467 kts | 283° |
| 2026-04-30 10:53 | 58.12826 | -20.92577 | 34253 ft | 467 kts | 283° |
| 2026-04-30 10:54 | 58.14422 | -21.04485 | 34281 ft | 466 kts | 283° |
| 2026-04-30 10:54 | 58.16004 | -21.16391 | 34263 ft | 465 kts | 284° |
| 2026-04-30 10:55 | 58.17569 | -21.28263 | 34247 ft | 464 kts | 283° |
| 2026-04-30 10:55 | 58.19119 | -21.40115 | 34249 ft | 463 kts | 283° |
| 2026-04-30 10:56 | 58.20646 | -21.51883 | 34265 ft | 461 kts | 284° |
| 2026-04-30 10:56 | 58.22165 | -21.63676 | 34246 ft | 459 kts | 284° |
| 2026-04-30 10:57 | 58.23666 | -21.75430 | 34250 ft | 457 kts | 284° |
| 2026-04-30 10:57 | 58.25149 | -21.87138 | 34252 ft | 456 kts | 284° |
| 2026-04-30 10:58 | 58.26620 | -21.98845 | 34254 ft | 456 kts | 284° |
| 2026-04-30 10:58 | 58.28080 | -22.10560 | 34253 ft | 455 kts | 284° |
| 2026-04-30 10:59 | 58.29521 | -22.22214 | 34240 ft | 454 kts | 285° |
| 2026-04-30 10:59 | 58.30954 | -22.33891 | 34248 ft | 452 kts | 285° |
| 2026-04-30 11:00 | 58.32367 | -22.45522 | 34250 ft | 451 kts | 285° |
| 2026-04-30 11:00 | 58.33769 | -22.57143 | 34252 ft | 449 kts | 284° |
| 2026-04-30 11:01 | 58.35158 | -22.68751 | 34250 ft | 449 kts | 284° |
| 2026-04-30 11:01 | 58.36528 | -22.80298 | 34245 ft | 449 kts | 284° |
| 2026-04-30 11:02 | 58.37897 | -22.91937 | 34246 ft | 450 kts | 284° |
| 2026-04-30 11:02 | 58.39255 | -23.03580 | 34256 ft | 448 kts | 285° |
| 2026-04-30 11:03 | 58.40368 | -23.13205 | 34238 ft | 446 kts | 285° |
| 2026-04-30 11:04 | 58.42344 | -23.30452 | 34239 ft | 442 kts | 285° |
| 2026-04-30 11:04 | 58.43640 | -23.41889 | 34243 ft | 440 kts | 285° |
| 2026-04-30 11:05 | 58.44925 | -23.53313 | 34242 ft | 440 kts | 285° |
| 2026-04-30 11:05 | 58.46191 | -23.64677 | 34242 ft | 441 kts | 285° |
| 2026-04-30 11:06 | 58.47459 | -23.76160 | 34236 ft | 441 kts | 286° |
| 2026-04-30 11:06 | 58.48716 | -23.87643 | 34237 ft | 441 kts | 285° |
| 2026-04-30 11:07 | 58.49962 | -23.99124 | 34253 ft | 441 kts | 285° |
| 2026-04-30 11:07 | 58.51196 | -24.10604 | 34233 ft | 440 kts | 285° |
| 2026-04-30 11:08 | 58.52414 | -24.22039 | 34230 ft | 438 kts | 285° |
| 2026-04-30 11:08 | 58.53618 | -24.33440 | 34233 ft | 436 kts | 285° |
| 2026-04-30 11:09 | 58.54808 | -24.44815 | 34235 ft | 435 kts | 285° |
| 2026-04-30 11:09 | 58.55978 | -24.56092 | 34231 ft | 434 kts | 286° |
| 2026-04-30 11:10 | 58.57143 | -24.67426 | 34229 ft | 434 kts | 285° |
| 2026-04-30 11:10 | 58.58300 | -24.78787 | 34232 ft | 434 kts | 285° |
| 2026-04-30 11:11 | 58.59447 | -24.90159 | 34227 ft | 435 kts | 285° |
| 2026-04-30 11:11 | 58.60587 | -25.01567 | 34227 ft | 435 kts | 285° |
| 2026-04-30 11:12 | 58.61714 | -25.12961 | 34225 ft | 434 kts | 285° |
| 2026-04-30 11:12 | 58.62829 | -25.24348 | 34194 ft | 433 kts | 285° |
| 2026-04-30 11:13 | 58.63933 | -25.35723 | 34211 ft | 432 kts | 284° |
| 2026-04-30 11:13 | 58.65017 | -25.46995 | 34211 ft | 431 kts | 284° |
| 2026-04-30 11:14 | 58.66094 | -25.58303 | 34221 ft | 431 kts | 284° |
| 2026-04-30 11:14 | 58.67162 | -25.69639 | 34214 ft | 431 kts | 284° |
| 2026-04-30 11:15 | 58.68220 | -25.80969 | 34223 ft | 431 kts | 284° |
| 2026-04-30 11:15 | 58.69268 | -25.92314 | 34216 ft | 431 kts | 284° |
| 2026-04-30 11:16 | 58.70308 | -26.03679 | 34196 ft | 431 kts | 283° |
| 2026-04-30 11:16 | 58.71328 | -26.14955 | 34207 ft | 430 kts | 283° |
| 2026-04-30 11:17 | 58.72340 | -26.26269 | 34209 ft | 428 kts | 283° |
| 2026-04-30 11:17 | 58.73339 | -26.37534 | 34211 ft | 427 kts | 283° |
| 2026-04-30 11:18 | 58.74327 | -26.48790 | 34205 ft | 426 kts | 283° |
| 2026-04-30 11:18 | 58.75791 | -26.65691 | 34201 ft | 426 kts | 283° |
| 2026-04-30 11:19 | 58.76756 | -26.76983 | 34204 ft | 427 kts | 283° |
| 2026-04-30 11:19 | 58.77711 | -26.88281 | 34195 ft | 428 kts | 283° |
| 2026-04-30 11:20 | 58.78659 | -26.99615 | 34201 ft | 428 kts | 283° |
| 2026-04-30 11:20 | 58.79597 | -27.10964 | 34197 ft | 429 kts | 282° |
| 2026-04-30 11:21 | 58.80526 | -27.22332 | 34187 ft | 429 kts | 282° |
| 2026-04-30 11:21 | 58.81440 | -27.33638 | 34183 ft | 429 kts | 282° |
| 2026-04-30 11:22 | 58.82350 | -27.45026 | 34191 ft | 429 kts | 282° |
| 2026-04-30 11:22 | 58.83249 | -27.56411 | 34191 ft | 429 kts | 282° |
| 2026-04-30 11:23 | 58.84137 | -27.67785 | 34180 ft | 428 kts | 282° |
| 2026-04-30 11:24 | 58.85451 | -27.84870 | 34192 ft | 428 kts | 282° |
| 2026-04-30 11:24 | 58.86309 | -27.96194 | 34193 ft | 429 kts | 282° |
| 2026-04-30 11:25 | 58.87586 | -28.13308 | 34192 ft | 428 kts | 281° |
| 2026-04-30 11:26 | 58.89243 | -28.35996 | 34188 ft | 425 kts | 281° |
| 2026-04-30 11:26 | 58.90053 | -28.47303 | 34166 ft | 423 kts | 281° |
| 2026-04-30 11:27 | 58.90850 | -28.58562 | 34174 ft | 422 kts | 281° |
| 2026-04-30 11:27 | 58.91638 | -28.69839 | 34175 ft | 423 kts | 281° |
| 2026-04-30 11:28 | 58.92798 | -28.86713 | 34166 ft | 424 kts | 280° |
| 2026-04-30 11:29 | 58.93564 | -28.98043 | 34165 ft | 425 kts | 280° |
| 2026-04-30 11:29 | 58.94695 | -29.15059 | 34178 ft | 424 kts | 279° |
| 2026-04-30 11:30 | 58.95797 | -29.31982 | 34155 ft | 420 kts | 279° |
| 2026-04-30 11:31 | 58.96515 | -29.43200 | 34159 ft | 419 kts | 279° |
| 2026-04-30 11:31 | 58.97224 | -29.54425 | 34159 ft | 419 kts | 279° |
| 2026-04-30 11:32 | 58.97918 | -29.65564 | 34151 ft | 419 kts | 279° |
| 2026-04-30 11:32 | 58.98606 | -29.76782 | 34149 ft | 419 kts | 279° |
| 2026-04-30 11:33 | 58.99622 | -29.93655 | 34151 ft | 420 kts | 278° |
| 2026-04-30 11:33 | 58.99716 | -30.05028 | 34145 ft | 424 kts | 269° |
| 2026-04-30 11:34 | 58.99032 | -30.16423 | 34147 ft | 425 kts | 267° |
| 2026-04-30 11:34 | 58.98321 | -30.27778 | 34142 ft | 422 kts | 267° |
| 2026-04-30 11:35 | 58.97619 | -30.39060 | 34142 ft | 420 kts | 267° |
| 2026-04-30 11:35 | 58.96916 | -30.50276 | 34138 ft | 418 kts | 267° |
| 2026-04-30 11:36 | 58.96211 | -30.61388 | 34140 ft | 418 kts | 267° |
| 2026-04-30 11:36 | 58.95494 | -30.72545 | 34137 ft | 417 kts | 266° |
| 2026-04-30 11:37 | 58.94766 | -30.83707 | 34130 ft | 418 kts | 266° |
| 2026-04-30 11:37 | 58.94027 | -30.94888 | 34131 ft | 419 kts | 266° |
| 2026-04-30 11:38 | 58.93275 | -31.06106 | 34135 ft | 420 kts | 266° |
| 2026-04-30 11:38 | 58.92512 | -31.17335 | 34134 ft | 421 kts | 266° |
| 2026-04-30 11:39 | 58.91739 | -31.28564 | 34137 ft | 421 kts | 266° |
| 2026-04-30 11:39 | 58.90956 | -31.39795 | 34126 ft | 421 kts | 266° |
| 2026-04-30 11:40 | 58.90169 | -31.50940 | 34121 ft | 421 kts | 266° |
| 2026-04-30 11:40 | 58.89362 | -31.62220 | 34120 ft | 421 kts | 265° |
| 2026-04-30 11:41 | 58.88551 | -31.73424 | 34125 ft | 421 kts | 265° |
| 2026-04-30 11:41 | 58.87735 | -31.84550 | 34128 ft | 419 kts | 265° |
| 2026-04-30 11:42 | 58.86907 | -31.95696 | 34122 ft | 417 kts | 265° |
| 2026-04-30 11:42 | 58.86076 | -32.06760 | 34115 ft | 415 kts | 265° |
| 2026-04-30 11:43 | 58.85239 | -32.17778 | 34112 ft | 413 kts | 265° |
| 2026-04-30 11:43 | 58.84396 | -32.28745 | 34121 ft | 413 kts | 265° |
| 2026-04-30 11:44 | 58.83548 | -32.39656 | 34122 ft | 413 kts | 264° |
| 2026-04-30 11:44 | 58.82679 | -32.50714 | 34119 ft | 414 kts | 264° |
| 2026-04-30 11:45 | 58.81810 | -32.61640 | 34127 ft | 415 kts | 264° |
| 2026-04-30 11:45 | 58.80925 | -32.72644 | 34107 ft | 415 kts | 264° |
| 2026-04-30 11:46 | 58.80028 | -32.83667 | 34112 ft | 416 kts | 264° |
| 2026-04-30 11:46 | 58.79120 | -32.94712 | 34118 ft | 417 kts | 264° |
| 2026-04-30 11:47 | 58.78202 | -33.05765 | 34115 ft | 417 kts | 264° |
| 2026-04-30 11:47 | 58.77273 | -33.16817 | 34118 ft | 418 kts | 264° |
| 2026-04-30 11:48 | 58.76335 | -33.27860 | 34117 ft | 417 kts | 264° |
| 2026-04-30 11:48 | 58.75388 | -33.38900 | 34123 ft | 417 kts | 263° |
| 2026-04-30 11:49 | 58.74435 | -33.49888 | 34106 ft | 415 kts | 263° |
| 2026-04-30 11:49 | 58.73476 | -33.60822 | 34100 ft | 413 kts | 263° |
| 2026-04-30 11:50 | 58.72676 | -33.69867 | 34103 ft | 412 kts | 263° |
| 2026-04-30 11:50 | 58.71550 | -33.82477 | 34104 ft | 410 kts | 263° |
| 2026-04-30 11:51 | 58.70732 | -33.91543 | 34109 ft | 410 kts | 263° |
| 2026-04-30 11:51 | 58.69755 | -34.02283 | 34101 ft | 411 kts | 263° |
| 2026-04-30 11:52 | 58.68761 | -34.13108 | 34103 ft | 411 kts | 263° |
| 2026-04-30 11:52 | 58.67756 | -34.23934 | 34104 ft | 412 kts | 262° |
| 2026-04-30 11:53 | 58.66740 | -34.34783 | 34108 ft | 413 kts | 262° |
| 2026-04-30 11:53 | 58.65712 | -34.45645 | 34111 ft | 413 kts | 262° |
| 2026-04-30 11:54 | 58.64676 | -34.56497 | 34108 ft | 413 kts | 262° |
| 2026-04-30 11:54 | 58.63630 | -34.67352 | 34086 ft | 413 kts | 262° |
| 2026-04-30 11:55 | 58.62575 | -34.78192 | 34104 ft | 412 kts | 262° |
| 2026-04-30 11:55 | 58.61513 | -34.89008 | 34103 ft | 412 kts | 262° |
| 2026-04-30 11:56 | 58.60450 | -34.99733 | 34156 ft | 411 kts | 261° |
| 2026-04-30 11:56 | 58.59376 | -35.10480 | 34116 ft | 408 kts | 261° |
| 2026-04-30 11:57 | 58.58301 | -35.21126 | 34106 ft | 405 kts | 261° |
| 2026-04-30 11:57 | 58.57226 | -35.31690 | 34094 ft | 402 kts | 261° |
| 2026-04-30 11:58 | 58.56150 | -35.42176 | 34089 ft | 400 kts | 261° |
| 2026-04-30 11:58 | 58.55071 | -35.52611 | 34108 ft | 400 kts | 261° |
| 2026-04-30 11:59 | 58.53978 | -35.63083 | 34111 ft | 402 kts | 261° |
| 2026-04-30 11:59 | 58.52873 | -35.73590 | 34116 ft | 403 kts | 261° |
| 2026-04-30 12:00 | 58.51763 | -35.84049 | 34117 ft | 404 kts | 261° |
| 2026-04-30 12:00 | 58.50634 | -35.94588 | 34106 ft | 405 kts | 261° |
| 2026-04-30 12:01 | 58.49495 | -36.05148 | 34104 ft | 405 kts | 260° |
| 2026-04-30 12:01 | 58.48347 | -36.15693 | 34109 ft | 405 kts | 260° |
| 2026-04-30 12:02 | 58.47190 | -36.26235 | 34114 ft | 405 kts | 260° |
| 2026-04-30 12:02 | 58.46026 | -36.36761 | 34114 ft | 405 kts | 260° |
| 2026-04-30 12:03 | 58.44265 | -36.52529 | 34119 ft | 404 kts | 260° |
| 2026-04-30 12:04 | 58.43081 | -36.63021 | 34127 ft | 404 kts | 259° |
| 2026-04-30 12:04 | 58.41895 | -36.73451 | 34104 ft | 401 kts | 259° |
| 2026-04-30 12:05 | 58.40708 | -36.83806 | 34109 ft | 398 kts | 259° |
| 2026-04-30 12:05 | 58.39520 | -36.94088 | 34113 ft | 396 kts | 259° |
| 2026-04-30 12:06 | 58.38326 | -37.04357 | 34118 ft | 396 kts | 259° |
| 2026-04-30 12:06 | 58.37125 | -37.14598 | 34120 ft | 397 kts | 259° |
| 2026-04-30 12:07 | 58.35912 | -37.24868 | 34111 ft | 398 kts | 259° |
| 2026-04-30 12:07 | 58.34689 | -37.35150 | 34114 ft | 399 kts | 259° |
| 2026-04-30 12:08 | 58.33457 | -37.45428 | 34119 ft | 401 kts | 259° |
| 2026-04-30 12:08 | 58.32205 | -37.55797 | 34124 ft | 403 kts | 258° |
| 2026-04-30 12:09 | 58.30938 | -37.66205 | 34119 ft | 404 kts | 258° |
| 2026-04-30 12:09 | 58.29662 | -37.76618 | 34123 ft | 404 kts | 258° |
| 2026-04-30 12:10 | 58.28377 | -37.87017 | 34122 ft | 404 kts | 258° |
| 2026-04-30 12:10 | 58.27087 | -37.97393 | 34100 ft | 403 kts | 258° |
| 2026-04-30 12:11 | 58.25788 | -38.07759 | 34113 ft | 404 kts | 258° |
| 2026-04-30 12:11 | 58.24479 | -38.18141 | 34157 ft | 405 kts | 258° |
| 2026-04-30 12:12 | 58.23158 | -38.28531 | 34133 ft | 404 kts | 258° |
| 2026-04-30 12:12 | 58.21841 | -38.38823 | 34122 ft | 403 kts | 257° |
| 2026-04-30 12:13 | 58.20514 | -38.49115 | 34114 ft | 401 kts | 257° |
| 2026-04-30 12:13 | 58.19181 | -38.59386 | 34092 ft | 400 kts | 257° |
| 2026-04-30 12:14 | 58.17841 | -38.69640 | 34113 ft | 401 kts | 257° |
| 2026-04-30 12:14 | 58.16497 | -38.79859 | 34126 ft | 403 kts | 257° |
| 2026-04-30 12:15 | 58.15129 | -38.90187 | 34132 ft | 405 kts | 257° |
| 2026-04-30 12:15 | 58.13748 | -39.00535 | 34131 ft | 406 kts | 257° |
| 2026-04-30 12:16 | 58.12356 | -39.10904 | 34119 ft | 407 kts | 257° |
| 2026-04-30 12:16 | 58.10955 | -39.21258 | 34081 ft | 406 kts | 257° |
| 2026-04-30 12:17 | 58.08837 | -39.36794 | 34126 ft | 408 kts | 256° |
| 2026-04-30 12:17 | 58.07408 | -39.47185 | 34125 ft | 409 kts | 256° |
| 2026-04-30 12:18 | 58.05976 | -39.57526 | 34120 ft | 410 kts | 256° |
| 2026-04-30 12:18 | 58.04526 | -39.67936 | 34141 ft | 410 kts | 256° |
| 2026-04-30 12:19 | 58.03066 | -39.78345 | 34130 ft | 409 kts | 256° |
| 2026-04-30 12:19 | 58.01608 | -39.88682 | 34097 ft | 406 kts | 256° |
| 2026-04-30 12:20 | 58.00158 | -39.98887 | 34113 ft | 405 kts | 256° |
| 2026-04-30 12:20 | 57.98643 | -40.09108 | 34121 ft | 404 kts | 255° |
| 2026-04-30 12:21 | 57.97078 | -40.19282 | 34124 ft | 405 kts | 255° |
| 2026-04-30 12:21 | 57.95504 | -40.29473 | 34127 ft | 405 kts | 255° |
| 2026-04-30 12:22 | 57.93922 | -40.39694 | 34117 ft | 407 kts | 255° |
| 2026-04-30 12:22 | 57.92335 | -40.49914 | 34123 ft | 407 kts | 255° |
| 2026-04-30 12:23 | 57.90737 | -40.60141 | 34127 ft | 408 kts | 255° |
| 2026-04-30 12:23 | 57.89131 | -40.70368 | 34123 ft | 408 kts | 254° |
| 2026-04-30 12:24 | 57.87516 | -40.80584 | 34122 ft | 408 kts | 254° |
| 2026-04-30 12:24 | 57.85902 | -40.90736 | 34133 ft | 408 kts | 254° |
| 2026-04-30 12:25 | 57.84270 | -41.00934 | 34125 ft | 407 kts | 254° |
| 2026-04-30 12:25 | 57.82630 | -41.11127 | 34100 ft | 407 kts | 254° |
| 2026-04-30 12:26 | 57.80983 | -41.21301 | 34123 ft | 408 kts | 253° |
| 2026-04-30 12:26 | 57.79323 | -41.31498 | 34127 ft | 409 kts | 253° |
| 2026-04-30 12:27 | 57.77663 | -41.41640 | 34129 ft | 410 kts | 253° |
| 2026-04-30 12:27 | 57.75979 | -41.51860 | 34128 ft | 411 kts | 253° |
| 2026-04-30 12:28 | 57.74286 | -41.62080 | 34123 ft | 411 kts | 253° |
| 2026-04-30 12:28 | 57.72584 | -41.72292 | 34103 ft | 411 kts | 253° |
| 2026-04-30 12:29 | 57.70872 | -41.82512 | 34127 ft | 411 kts | 253° |
| 2026-04-30 12:29 | 57.69150 | -41.92723 | 34132 ft | 412 kts | 253° |
| 2026-04-30 12:30 | 57.67431 | -42.02864 | 34132 ft | 412 kts | 253° |
| 2026-04-30 12:30 | 57.65690 | -42.13077 | 34136 ft | 412 kts | 253° |
| 2026-04-30 12:31 | 57.63937 | -42.23301 | 34136 ft | 413 kts | 252° |
| 2026-04-30 12:31 | 57.62188 | -42.33445 | 34128 ft | 413 kts | 252° |
| 2026-04-30 12:32 | 57.60423 | -42.43628 | 34142 ft | 413 kts | 252° |
| 2026-04-30 12:32 | 57.58647 | -42.53813 | 34142 ft | 413 kts | 252° |
| 2026-04-30 12:33 | 57.56858 | -42.64013 | 34147 ft | 414 kts | 252° |
| 2026-04-30 12:33 | 57.55064 | -42.74190 | 34147 ft | 414 kts | 252° |
| 2026-04-30 12:34 | 57.53260 | -42.84360 | 34150 ft | 413 kts | 252° |
| 2026-04-30 12:34 | 57.51454 | -42.94494 | 34134 ft | 411 kts | 251° |
| 2026-04-30 12:35 | 57.49649 | -43.04565 | 34145 ft | 409 kts | 251° |
| 2026-04-30 12:35 | 57.47843 | -43.14581 | 34149 ft | 408 kts | 251° |
| 2026-04-30 12:36 | 57.46043 | -43.24516 | 34147 ft | 408 kts | 251° |
| 2026-04-30 12:36 | 57.44223 | -43.34506 | 34157 ft | 408 kts | 251° |
| 2026-04-30 12:37 | 57.42395 | -43.44488 | 34146 ft | 409 kts | 251° |
| 2026-04-30 12:37 | 57.40555 | -43.54482 | 34138 ft | 410 kts | 251° |
| 2026-04-30 12:38 | 57.39013 | -43.62820 | 34150 ft | 411 kts | 251° |
| 2026-04-30 12:38 | 57.37146 | -43.72863 | 34152 ft | 413 kts | 251° |
| 2026-04-30 12:39 | 57.35262 | -43.82944 | 34153 ft | 414 kts | 251° |
| 2026-04-30 12:39 | 57.33367 | -43.93027 | 34152 ft | 415 kts | 251° |
| 2026-04-30 12:40 | 57.31463 | -44.03107 | 34149 ft | 415 kts | 250° |
| 2026-04-30 12:40 | 57.29552 | -44.13170 | 34135 ft | 414 kts | 250° |
| 2026-04-30 12:41 | 57.27635 | -44.23215 | 34151 ft | 414 kts | 250° |
| 2026-04-30 12:41 | 57.25719 | -44.33203 | 34194 ft | 415 kts | 250° |
| 2026-04-30 12:42 | 57.23784 | -44.43233 | 34162 ft | 413 kts | 250° |
| 2026-04-30 12:42 | 57.21853 | -44.53196 | 34156 ft | 412 kts | 250° |
| 2026-04-30 12:43 | 57.19921 | -44.63113 | 34150 ft | 410 kts | 250° |
| 2026-04-30 12:43 | 57.17989 | -44.72978 | 34139 ft | 409 kts | 250° |
| 2026-04-30 12:44 | 57.16047 | -44.82842 | 34153 ft | 410 kts | 250° |
| 2026-04-30 12:44 | 57.14092 | -44.92724 | 34163 ft | 411 kts | 249° |
| 2026-04-30 12:45 | 57.12120 | -45.02645 | 34162 ft | 413 kts | 249° |
| 2026-04-30 12:45 | 57.10135 | -45.12578 | 34161 ft | 414 kts | 249° |
| 2026-04-30 12:46 | 57.08140 | -45.22512 | 34155 ft | 414 kts | 249° |
| 2026-04-30 12:46 | 57.06143 | -45.32404 | 34147 ft | 415 kts | 249° |
| 2026-04-30 12:47 | 57.04125 | -45.42353 | 34158 ft | 416 kts | 249° |
| 2026-04-30 12:47 | 57.02098 | -45.52293 | 34149 ft | 416 kts | 249° |
| 2026-04-30 12:48 | 57.00061 | -45.62239 | 34163 ft | 417 kts | 249° |
| 2026-04-30 12:48 | 56.98023 | -45.72137 | 34162 ft | 417 kts | 249° |
| 2026-04-30 12:49 | 56.95969 | -45.82064 | 34191 ft | 416 kts | 249° |
| 2026-04-30 12:49 | 56.93910 | -45.91969 | 34156 ft | 415 kts | 248° |
| 2026-04-30 12:50 | 56.91848 | -46.01837 | 34159 ft | 414 kts | 248° |
| 2026-04-30 12:50 | 56.89785 | -46.11661 | 34161 ft | 413 kts | 248° |
| 2026-04-30 12:51 | 56.87715 | -46.21469 | 34161 ft | 413 kts | 248° |
| 2026-04-30 12:51 | 56.85637 | -46.31274 | 34164 ft | 413 kts | 248° |
| 2026-04-30 12:52 | 56.83564 | -46.41005 | 34157 ft | 414 kts | 248° |
| 2026-04-30 12:52 | 56.81467 | -46.50804 | 34155 ft | 414 kts | 248° |
| 2026-04-30 12:53 | 56.79362 | -46.60591 | 34158 ft | 414 kts | 248° |
| 2026-04-30 12:53 | 56.77246 | -46.70384 | 34158 ft | 415 kts | 248° |
| 2026-04-30 12:54 | 56.75122 | -46.80164 | 34160 ft | 415 kts | 248° |
| 2026-04-30 12:54 | 56.72991 | -46.89936 | 34161 ft | 415 kts | 248° |
| 2026-04-30 12:55 | 56.70851 | -46.99698 | 34141 ft | 415 kts | 247° |
| 2026-04-30 12:55 | 56.68700 | -47.09467 | 34156 ft | 416 kts | 247° |
| 2026-04-30 12:56 | 56.66540 | -47.19231 | 34158 ft | 417 kts | 247° |
| 2026-04-30 12:56 | 56.64380 | -47.28949 | 34180 ft | 417 kts | 247° |
| 2026-04-30 12:57 | 56.62197 | -47.38722 | 34166 ft | 417 kts | 247° |
| 2026-04-30 12:57 | 56.60004 | -47.48499 | 34161 ft | 417 kts | 247° |
| 2026-04-30 12:58 | 56.57807 | -47.58245 | 34145 ft | 417 kts | 246° |
| 2026-04-30 12:58 | 56.55607 | -47.67960 | 34162 ft | 417 kts | 246° |
| 2026-04-30 12:59 | 56.53391 | -47.77700 | 34161 ft | 418 kts | 246° |
| 2026-04-30 12:59 | 56.51167 | -47.87433 | 34164 ft | 418 kts | 246° |
| 2026-04-30 13:00 | 56.48933 | -47.97161 | 34167 ft | 419 kts | 246° |
| 2026-04-30 13:00 | 56.46689 | -48.06891 | 34166 ft | 419 kts | 246° |
| 2026-04-30 13:01 | 56.44453 | -48.16545 | 34155 ft | 419 kts | 246° |
| 2026-04-30 13:01 | 56.42190 | -48.26269 | 34163 ft | 420 kts | 246° |
| 2026-04-30 13:02 | 56.39915 | -48.35997 | 34160 ft | 421 kts | 246° |
| 2026-04-30 13:02 | 56.37630 | -48.45728 | 34161 ft | 421 kts | 246° |
| 2026-04-30 13:03 | 56.35333 | -48.55461 | 34166 ft | 421 kts | 246° |
| 2026-04-30 13:03 | 56.33032 | -48.65170 | 34149 ft | 421 kts | 245° |
| 2026-04-30 13:04 | 56.30715 | -48.74901 | 34167 ft | 423 kts | 245° |
| 2026-04-30 13:04 | 56.28379 | -48.84672 | 34166 ft | 426 kts | 245° |
| 2026-04-30 13:05 | 56.26025 | -48.94468 | 34162 ft | 427 kts | 245° |
| 2026-04-30 13:06 | 56.22483 | -49.09133 | 34157 ft | 428 kts | 245° |
| 2026-04-30 13:06 | 56.20102 | -49.18935 | 34160 ft | 428 kts | 245° |
| 2026-04-30 13:07 | 56.17695 | -49.28795 | 34442 ft | 431 kts | 245° |
| 2026-04-30 13:07 | 56.16509 | -49.33643 | 34737 ft | 429 kts | 245° |
| 2026-04-30 13:07 | 56.15305 | -49.38548 | 35022 ft | 429 kts | 245° |
| 2026-04-30 13:07 | 56.14104 | -49.43431 | 35280 ft | 429 kts | 245° |
| 2026-04-30 13:08 | 56.12899 | -49.48321 | 35486 ft | 429 kts | 245° |
| 2026-04-30 13:08 | 56.11690 | -49.53213 | 35719 ft | 429 kts | 245° |
| 2026-04-30 13:08 | 56.10480 | -49.58103 | 35956 ft | 429 kts | 245° |
| 2026-04-30 13:08 | 56.09265 | -49.62999 | 36069 ft | 431 kts | 245° |
| 2026-04-30 13:09 | 56.08042 | -49.67915 | 36118 ft | 432 kts | 245° |
| 2026-04-30 13:09 | 56.05595 | -49.77724 | 36137 ft | 431 kts | 245° |
| 2026-04-30 13:10 | 56.03140 | -49.87524 | 36156 ft | 432 kts | 245° |
| 2026-04-30 13:10 | 56.00676 | -49.97322 | 36159 ft | 432 kts | 245° |
| 2026-04-30 13:11 | 55.98254 | -50.07095 | 36180 ft | 433 kts | 246° |
| 2026-04-30 13:11 | 55.95861 | -50.17059 | 36169 ft | 434 kts | 246° |
| 2026-04-30 13:12 | 55.93495 | -50.26891 | 36159 ft | 434 kts | 246° |
| 2026-04-30 13:12 | 55.91093 | -50.36794 | 36150 ft | 434 kts | 245° |
| 2026-04-30 13:13 | 55.87470 | -50.51604 | 36157 ft | 435 kts | 245° |
| 2026-04-30 13:14 | 55.83827 | -50.66386 | 36159 ft | 434 kts | 245° |
| 2026-04-30 13:14 | 55.80186 | -50.81067 | 36149 ft | 434 kts | 245° |
| 2026-04-30 13:15 | 55.76509 | -50.95793 | 36154 ft | 435 kts | 245° |
| 2026-04-30 13:16 | 55.74044 | -51.05608 | 36153 ft | 435 kts | 245° |
| 2026-04-30 13:16 | 55.71571 | -51.15414 | 36159 ft | 436 kts | 245° |
| 2026-04-30 13:17 | 55.67837 | -51.30137 | 36158 ft | 436 kts | 245° |
| 2026-04-30 13:18 | 55.64093 | -51.44805 | 36160 ft | 435 kts | 244° |
| 2026-04-30 13:18 | 55.60354 | -51.59355 | 36151 ft | 431 kts | 244° |
| 2026-04-30 13:19 | 55.57881 | -51.68929 | 36153 ft | 430 kts | 244° |
| 2026-04-30 13:19 | 55.55394 | -51.78515 | 36158 ft | 429 kts | 244° |
| 2026-04-30 13:20 | 55.52903 | -51.88073 | 36147 ft | 428 kts | 244° |
| 2026-04-30 13:20 | 55.50403 | -51.97624 | 36148 ft | 429 kts | 244° |
| 2026-04-30 13:21 | 55.47890 | -52.07187 | 36154 ft | 430 kts | 244° |
| 2026-04-30 13:22 | 55.44101 | -52.21529 | 36154 ft | 431 kts | 244° |
| 2026-04-30 13:22 | 55.40289 | -52.35869 | 36145 ft | 432 kts | 244° |
| 2026-04-30 13:23 | 55.36452 | -52.50212 | 36139 ft | 432 kts | 243° |
| 2026-04-30 13:24 | 55.31314 | -52.69277 | 36163 ft | 433 kts | 243° |
| 2026-04-30 13:25 | 55.26150 | -52.88275 | 36144 ft | 429 kts | 243° |
| 2026-04-30 13:26 | 55.19705 | -53.11771 | 36150 ft | 427 kts | 243° |
| 2026-04-30 13:28 | 55.13671 | -53.33550 | 36142 ft | 429 kts | 242° |
| 2026-04-30 13:28 | 55.09742 | -53.47625 | 36134 ft | 430 kts | 242° |
| 2026-04-30 13:29 | 55.04476 | -53.66351 | 36148 ft | 432 kts | 242° |
| 2026-04-30 13:31 | 54.97812 | -53.89838 | 36144 ft | 432 kts | 242° |
| 2026-04-30 13:32 | 54.91131 | -54.13150 | 36139 ft | 429 kts | 242° |
| 2026-04-30 13:33 | 54.85806 | -54.31563 | 36136 ft | 428 kts | 242° |
| 2026-04-30 13:34 | 54.81775 | -54.45405 | 36135 ft | 428 kts | 241° |
| 2026-04-30 13:35 | 54.76385 | -54.63787 | 36141 ft | 430 kts | 241° |
| 2026-04-30 13:36 | 54.70935 | -54.82234 | 36135 ft | 431 kts | 241° |
| 2026-04-30 13:36 | 54.66818 | -54.96072 | 36124 ft | 432 kts | 241° |
| 2026-04-30 13:37 | 54.62680 | -55.09898 | 36140 ft | 432 kts | 240° |
| 2026-04-30 13:38 | 54.58529 | -55.23687 | 36143 ft | 432 kts | 240° |
| 2026-04-30 13:39 | 54.52983 | -55.41988 | 36134 ft | 432 kts | 240° |
| 2026-04-30 13:40 | 54.48793 | -55.55724 | 36139 ft | 432 kts | 240° |
| 2026-04-30 13:40 | 54.45987 | -55.64875 | 36138 ft | 432 kts | 240° |
| 2026-04-30 13:41 | 54.43174 | -55.74017 | 36140 ft | 433 kts | 240° |
| 2026-04-30 13:41 | 54.40353 | -55.83148 | 36140 ft | 433 kts | 240° |
| 2026-04-30 13:42 | 54.37521 | -55.92279 | 36132 ft | 433 kts | 240° |
| 2026-04-30 13:42 | 54.33277 | -56.05900 | 36143 ft | 434 kts | 240° |
| 2026-04-30 13:43 | 54.30423 | -56.15019 | 36151 ft | 434 kts | 240° |
| 2026-04-30 13:43 | 54.27556 | -56.24142 | 36138 ft | 435 kts | 239° |
| 2026-04-30 13:44 | 54.24685 | -56.33243 | 36132 ft | 435 kts | 239° |
| 2026-04-30 13:44 | 54.21803 | -56.42349 | 36128 ft | 435 kts | 239° |
| 2026-04-30 13:45 | 54.17494 | -56.55892 | 36137 ft | 434 kts | 239° |
| 2026-04-30 13:46 | 54.14599 | -56.64954 | 36128 ft | 435 kts | 239° |
| 2026-04-30 13:46 | 54.11698 | -56.73996 | 36128 ft | 435 kts | 239° |
| 2026-04-30 13:47 | 54.08790 | -56.83030 | 36129 ft | 435 kts | 239° |
| 2026-04-30 13:47 | 54.05874 | -56.92062 | 36131 ft | 435 kts | 239° |
| 2026-04-30 13:48 | 54.02825 | -57.00863 | 36128 ft | 433 kts | 233° |
| 2026-04-30 13:48 | 53.99057 | -57.08834 | 36138 ft | 432 kts | 229° |
| 2026-04-30 13:49 | 53.95211 | -57.16692 | 36134 ft | 433 kts | 229° |
| 2026-04-30 13:49 | 53.91371 | -57.24570 | 36128 ft | 433 kts | 229° |
| 2026-04-30 13:50 | 53.87528 | -57.32446 | 36125 ft | 433 kts | 229° |
| 2026-04-30 13:50 | 53.81745 | -57.44253 | 36132 ft | 434 kts | 229° |
| 2026-04-30 13:51 | 53.77883 | -57.52106 | 36167 ft | 435 kts | 229° |
| 2026-04-30 13:51 | 53.74003 | -57.59971 | 36129 ft | 435 kts | 229° |
| 2026-04-30 13:52 | 53.70144 | -57.67767 | 36129 ft | 434 kts | 229° |
| 2026-04-30 13:52 | 53.66270 | -57.75569 | 36138 ft | 433 kts | 229° |
| 2026-04-30 13:53 | 53.62398 | -57.83342 | 36130 ft | 432 kts | 229° |
| 2026-04-30 13:53 | 53.58527 | -57.91089 | 36137 ft | 431 kts | 229° |
| 2026-04-30 13:54 | 53.54660 | -57.98803 | 36130 ft | 431 kts | 229° |
| 2026-04-30 13:54 | 53.50789 | -58.06505 | 36131 ft | 431 kts | 229° |
| 2026-04-30 13:55 | 53.46927 | -58.14162 | 36137 ft | 432 kts | 229° |
| 2026-04-30 13:55 | 53.43033 | -58.21857 | 36144 ft | 433 kts | 228° |
| 2026-04-30 13:56 | 53.39130 | -58.29549 | 36154 ft | 433 kts | 228° |
| 2026-04-30 13:56 | 53.35214 | -58.37243 | 36147 ft | 434 kts | 228° |
| 2026-04-30 13:57 | 53.31286 | -58.44934 | 36157 ft | 435 kts | 228° |
| 2026-04-30 13:57 | 53.27348 | -58.52620 | 36157 ft | 435 kts | 228° |
| 2026-04-30 13:58 | 53.21427 | -58.64136 | 36157 ft | 435 kts | 228° |
| 2026-04-30 13:59 | 53.17496 | -58.71752 | 36154 ft | 435 kts | 228° |
| 2026-04-30 13:59 | 53.13541 | -58.79391 | 36159 ft | 435 kts | 228° |
| 2026-04-30 14:00 | 53.09574 | -58.87029 | 36167 ft | 435 kts | 228° |
| 2026-04-30 14:00 | 53.03618 | -58.98452 | 36167 ft | 436 kts | 227° |
| 2026-04-30 14:01 | 52.99640 | -59.06053 | 36162 ft | 436 kts | 227° |
| 2026-04-30 14:01 | 52.95653 | -59.13647 | 36162 ft | 436 kts | 227° |
| 2026-04-30 14:02 | 52.91662 | -59.21226 | 36168 ft | 437 kts | 227° |
| 2026-04-30 14:02 | 52.87682 | -59.28762 | 36185 ft | 438 kts | 227° |
| 2026-04-30 14:03 | 52.83653 | -59.36365 | 36176 ft | 440 kts | 227° |
| 2026-04-30 14:03 | 52.79604 | -59.43984 | 36170 ft | 441 kts | 227° |
| 2026-04-30 14:04 | 52.75538 | -59.51612 | 36177 ft | 443 kts | 227° |
| 2026-04-30 14:04 | 52.71455 | -59.59248 | 36187 ft | 444 kts | 227° |
| 2026-04-30 14:05 | 52.67363 | -59.66877 | 36182 ft | 444 kts | 227° |
| 2026-04-30 14:05 | 52.63261 | -59.74502 | 36187 ft | 444 kts | 227° |
| 2026-04-30 14:06 | 52.57129 | -59.85856 | 36194 ft | 444 kts | 227° |
| 2026-04-30 14:07 | 52.50963 | -59.97222 | 36191 ft | 444 kts | 227° |
| 2026-04-30 14:08 | 52.44787 | -60.08554 | 36188 ft | 444 kts | 227° |
| 2026-04-30 14:08 | 52.38602 | -60.19850 | 36197 ft | 444 kts | 227° |
| 2026-04-30 14:09 | 52.34468 | -60.27373 | 36199 ft | 444 kts | 226° |
| 2026-04-30 14:10 | 52.28282 | -60.38585 | 36204 ft | 445 kts | 226° |
| 2026-04-30 14:10 | 52.24132 | -60.46079 | 36200 ft | 445 kts | 226° |
| 2026-04-30 14:11 | 52.19974 | -60.53565 | 36198 ft | 445 kts | 226° |
| 2026-04-30 14:11 | 52.15803 | -60.61054 | 36195 ft | 445 kts | 226° |
| 2026-04-30 14:12 | 52.11632 | -60.68518 | 36193 ft | 446 kts | 226° |
| 2026-04-30 14:12 | 52.07454 | -60.75973 | 36195 ft | 445 kts | 226° |
| 2026-04-30 14:13 | 52.03274 | -60.83409 | 36196 ft | 446 kts | 226° |
| 2026-04-30 14:13 | 51.99113 | -60.90789 | 36207 ft | 446 kts | 226° |
| 2026-04-30 14:14 | 51.94909 | -60.98217 | 36201 ft | 448 kts | 226° |
| 2026-04-30 14:14 | 51.90687 | -61.05665 | 36196 ft | 449 kts | 226° |
| 2026-04-30 14:15 | 51.86451 | -61.13113 | 36194 ft | 451 kts | 226° |
| 2026-04-30 14:15 | 51.82188 | -61.20585 | 36207 ft | 452 kts | 226° |
| 2026-04-30 14:16 | 51.77940 | -61.28007 | 36195 ft | 453 kts | 226° |
| 2026-04-30 14:16 | 51.73651 | -61.35479 | 36199 ft | 454 kts | 226° |
| 2026-04-30 14:17 | 51.69357 | -61.42938 | 36205 ft | 454 kts | 226° |
| 2026-04-30 14:17 | 51.65049 | -61.50397 | 36204 ft | 454 kts | 226° |
| 2026-04-30 14:18 | 51.61467 | -61.56584 | 36206 ft | 454 kts | 226° |
| 2026-04-30 14:18 | 51.54995 | -61.67721 | 36207 ft | 454 kts | 226° |
| 2026-04-30 14:19 | 51.48516 | -61.78822 | 36214 ft | 454 kts | 225° |
| 2026-04-30 14:20 | 51.44211 | -61.86170 | 36207 ft | 455 kts | 225° |
| 2026-04-30 14:20 | 51.37706 | -61.97233 | 36211 ft | 455 kts | 225° |
| 2026-04-30 14:21 | 51.33357 | -62.04602 | 36206 ft | 455 kts | 225° |
| 2026-04-30 14:22 | 51.26821 | -62.15635 | 36216 ft | 456 kts | 225° |
| 2026-04-30 14:22 | 51.20258 | -62.26664 | 36214 ft | 457 kts | 225° |
| 2026-04-30 14:23 | 51.11480 | -62.41341 | 36208 ft | 458 kts | 225° |
| 2026-04-30 14:24 | 51.04855 | -62.52358 | 36213 ft | 461 kts | 225° |
| 2026-04-30 14:25 | 50.95966 | -62.67070 | 36208 ft | 465 kts | 225° |
| 2026-04-30 14:26 | 50.89220 | -62.78174 | 36199 ft | 467 kts | 225° |
| 2026-04-30 14:27 | 50.82452 | -62.89267 | 36196 ft | 467 kts | 225° |
| 2026-04-30 14:27 | 50.77938 | -62.96638 | 36197 ft | 466 kts | 225° |
| 2026-04-30 14:28 | 50.71165 | -63.07656 | 36193 ft | 466 kts | 225° |
| 2026-04-30 14:28 | 50.66649 | -63.14976 | 36192 ft | 466 kts | 225° |
| 2026-04-30 14:29 | 50.57600 | -63.29578 | 36187 ft | 466 kts | 225° |
| 2026-04-30 14:31 | 50.46269 | -63.47743 | 36179 ft | 465 kts | 225° |
| 2026-04-30 14:31 | 50.39501 | -63.58530 | 36168 ft | 464 kts | 224° |
| 2026-04-30 14:32 | 50.32685 | -63.69347 | 36166 ft | 465 kts | 224° |
| 2026-04-30 14:33 | 50.28138 | -63.76537 | 36171 ft | 465 kts | 224° |
| 2026-04-30 14:33 | 50.21285 | -63.87333 | 36157 ft | 467 kts | 224° |
| 2026-04-30 14:34 | 50.16705 | -63.94522 | 36147 ft | 466 kts | 224° |
| 2026-04-30 14:34 | 50.12134 | -64.01678 | 36168 ft | 465 kts | 224° |
| 2026-04-30 14:35 | 50.05312 | -64.12319 | 36162 ft | 464 kts | 224° |
| 2026-04-30 14:36 | 50.00737 | -64.19429 | 36149 ft | 464 kts | 224° |
| 2026-04-30 14:36 | 49.96150 | -64.26537 | 36150 ft | 466 kts | 224° |
| 2026-04-30 14:37 | 49.91548 | -64.33650 | 36137 ft | 467 kts | 224° |
| 2026-04-30 14:37 | 49.86970 | -64.40703 | 36111 ft | 467 kts | 224° |
| 2026-04-30 14:38 | 49.82360 | -64.47787 | 36113 ft | 464 kts | 224° |
| 2026-04-30 14:38 | 49.77796 | -64.54781 | 36123 ft | 459 kts | 224° |
| 2026-04-30 14:39 | 49.73249 | -64.61728 | 36122 ft | 459 kts | 224° |
| 2026-04-30 14:39 | 49.68686 | -64.68681 | 36116 ft | 461 kts | 224° |
| 2026-04-30 14:40 | 49.61772 | -64.79178 | 36099 ft | 468 kts | 224° |
| 2026-04-30 14:40 | 49.57129 | -64.86205 | 36093 ft | 468 kts | 224° |
| 2026-04-30 14:41 | 49.52518 | -64.93160 | 36068 ft | 465 kts | 224° |
| 2026-04-30 14:41 | 49.47872 | -65.00151 | 36055 ft | 463 kts | 223° |
| 2026-04-30 14:42 | 49.43298 | -65.07014 | 36048 ft | 462 kts | 224° |
| 2026-04-30 14:42 | 49.38683 | -65.13919 | 36056 ft | 464 kts | 224° |
| 2026-04-30 14:43 | 49.34035 | -65.20855 | 36069 ft | 467 kts | 223° |
| 2026-04-30 14:43 | 49.29368 | -65.27809 | 36047 ft | 469 kts | 223° |
| 2026-04-30 14:44 | 49.24663 | -65.34785 | 36041 ft | 472 kts | 223° |
| 2026-04-30 14:44 | 49.19927 | -65.41788 | 36042 ft | 474 kts | 223° |
| 2026-04-30 14:45 | 49.15188 | -65.48779 | 36035 ft | 473 kts | 222° |
| 2026-04-30 14:45 | 49.10477 | -65.55714 | 36032 ft | 467 kts | 223° |
| 2026-04-30 14:46 | 49.05837 | -65.62525 | 36031 ft | 461 kts | 222° |
| 2026-04-30 14:46 | 49.01197 | -65.69313 | 36060 ft | 465 kts | 222° |
| 2026-04-30 14:47 | 48.96495 | -65.76171 | 36020 ft | 470 kts | 223° |
| 2026-04-30 14:47 | 48.91785 | -65.83025 | 36021 ft | 472 kts | 223° |
| 2026-04-30 14:48 | 48.87060 | -65.89885 | 36027 ft | 467 kts | 222° |
| 2026-04-30 14:48 | 48.82364 | -65.96684 | 36037 ft | 465 kts | 222° |
| 2026-04-30 14:49 | 48.77676 | -66.03450 | 36056 ft | 465 kts | 222° |
| 2026-04-30 14:49 | 48.72975 | -66.10218 | 36057 ft | 467 kts | 222° |
| 2026-04-30 14:50 | 48.65885 | -66.20389 | 36053 ft | 469 kts | 222° |
| 2026-04-30 14:51 | 48.58763 | -66.30565 | 36026 ft | 469 kts | 222° |
| 2026-04-30 14:52 | 48.51635 | -66.40707 | 36025 ft | 469 kts | 222° |
| 2026-04-30 14:52 | 48.44527 | -66.50784 | 36030 ft | 469 kts | 221° |
| 2026-04-30 14:53 | 48.37426 | -66.60809 | 36036 ft | 462 kts | 221° |
| 2026-04-30 14:54 | 48.28072 | -66.73949 | 36039 ft | 462 kts | 221° |
| 2026-04-30 14:55 | 48.21002 | -66.83835 | 36024 ft | 465 kts | 221° |
| 2026-04-30 14:56 | 48.11650 | -66.96857 | 36018 ft | 455 kts | 221° |
| 2026-04-30 14:57 | 48.04685 | -67.06509 | 36023 ft | 455 kts | 221° |
| 2026-04-30 14:58 | 47.95344 | -67.19395 | 36012 ft | 457 kts | 221° |
| 2026-04-30 14:58 | 47.88341 | -67.29013 | 35997 ft | 459 kts | 221° |
| 2026-04-30 15:00 | 47.76598 | -67.45059 | 35987 ft | 457 kts | 221° |
| 2026-04-30 15:01 | 47.67216 | -67.57805 | 35985 ft | 456 kts | 221° |
| 2026-04-30 15:01 | 47.60190 | -67.67311 | 35984 ft | 455 kts | 221° |
| 2026-04-30 15:02 | 47.55513 | -67.73621 | 35985 ft | 455 kts | 221° |
| 2026-04-30 15:03 | 47.43710 | -67.89072 | 35966 ft | 452 kts | 219° |
| 2026-04-30 15:04 | 47.31871 | -68.04327 | 35945 ft | 452 kts | 219° |
| 2026-04-30 15:06 | 47.20828 | -68.18506 | 35936 ft | 451 kts | 219° |
| 2026-04-30 15:07 | 47.11355 | -68.30602 | 35950 ft | 451 kts | 219° |
| 2026-04-30 15:08 | 47.01876 | -68.42646 | 35972 ft | 450 kts | 219° |
| 2026-04-30 15:09 | 46.90069 | -68.57566 | 35984 ft | 450 kts | 219° |
| 2026-04-30 15:10 | 46.80590 | -68.69480 | 35973 ft | 449 kts | 218° |
| 2026-04-30 15:11 | 46.66365 | -68.87251 | 35959 ft | 448 kts | 218° |
| 2026-04-30 15:13 | 46.54554 | -69.01912 | 35945 ft | 446 kts | 218° |
| 2026-04-30 15:14 | 46.38047 | -69.22253 | 35906 ft | 444 kts | 218° |
| 2026-04-30 15:17 | 46.16826 | -69.48160 | 35881 ft | 442 kts | 217° |
| 2026-04-30 15:19 | 45.97986 | -69.70935 | 35869 ft | 444 kts | 217° |